<?xml version="1.0" encoding="UTF-8" standalone="no" ?>
<gpx xmlns="http://www.topografix.com/GPX/1/1" xmlns:xsi="http://www.w3.org/2001/XMLSchema-instance" xsi:schemaLocation="http://www.topografix.com/GPX/1/1 http://www.topografix.com/GPX/1/1/gpx.xsd" version="1.1" creator="VisuGPX - https://www.visugpx.com">
  <metadata>
    <name>Remake Caudebecaise 14 pour CCR</name>
    <desc><![CDATA[Remake Caudebecaise 14 pour CCR le 23/07/14]]></desc>
  </metadata>
  <trk>
    <name><![CDATA[Caudebecaise14 CCR]]></name>
    <trkseg>
      <trkpt lat="49.27903" lon="1.02503">
        <ele>13.998828</ele>
        <time>2014-04-13T08:31:38Z</time>
      </trkpt>
      <trkpt lat="49.27895" lon="1.02485">
        <ele>14</ele>
        <time>2014-04-13T08:31:55Z</time>
      </trkpt>
      <trkpt lat="49.27888" lon="1.0248">
        <ele>14</ele>
        <time>2014-04-13T08:31:58Z</time>
      </trkpt>
      <trkpt lat="49.27873" lon="1.02488">
        <ele>14</ele>
        <time>2014-04-13T08:32:01Z</time>
      </trkpt>
      <trkpt lat="49.27858" lon="1.02498">
        <ele>14</ele>
        <time>2014-04-13T08:32:04Z</time>
      </trkpt>
      <trkpt lat="49.2783" lon="1.02513">
        <ele>14</ele>
        <time>2014-04-13T08:32:09Z</time>
      </trkpt>
      <trkpt lat="49.2781" lon="1.02523">
        <ele>14</ele>
        <time>2014-04-13T08:32:13Z</time>
      </trkpt>
      <trkpt lat="49.27795" lon="1.02528">
        <ele>14.325</ele>
        <time>2014-04-13T08:32:17Z</time>
      </trkpt>
      <trkpt lat="49.27778" lon="1.02528">
        <ele>14.715</ele>
        <time>2014-04-13T08:32:21Z</time>
      </trkpt>
      <trkpt lat="49.2776" lon="1.02523">
        <ele>15.1</ele>
        <time>2014-04-13T08:32:25Z</time>
      </trkpt>
      <trkpt lat="49.27745" lon="1.02523">
        <ele>15.435</ele>
        <time>2014-04-13T08:32:28Z</time>
      </trkpt>
      <trkpt lat="49.27728" lon="1.02523">
        <ele>15.825</ele>
        <time>2014-04-13T08:32:31Z</time>
      </trkpt>
      <trkpt lat="49.2771" lon="1.0252">
        <ele>16.215</ele>
        <time>2014-04-13T08:32:34Z</time>
      </trkpt>
      <trkpt lat="49.27695" lon="1.02513">
        <ele>16.545</ele>
        <time>2014-04-13T08:32:37Z</time>
      </trkpt>
      <trkpt lat="49.27678" lon="1.02508">
        <ele>16.909872</ele>
        <time>2014-04-13T08:32:40Z</time>
      </trkpt>
      <trkpt lat="49.2766" lon="1.025">
        <ele>16.903099</ele>
        <time>2014-04-13T08:32:43Z</time>
      </trkpt>
      <trkpt lat="49.27605" lon="1.02478">
        <ele>17.540001</ele>
        <time>2014-04-13T08:32:53Z</time>
      </trkpt>
      <trkpt lat="49.27598" lon="1.02458">
        <ele>17.705</ele>
        <time>2014-04-13T08:32:57Z</time>
      </trkpt>
      <trkpt lat="49.2759" lon="1.0244">
        <ele>17.901762</ele>
        <time>2014-04-13T08:33:02Z</time>
      </trkpt>
      <trkpt lat="49.27575" lon="1.0243">
        <ele>18.388124</ele>
        <time>2014-04-13T08:33:06Z</time>
      </trkpt>
      <trkpt lat="49.27558" lon="1.02415">
        <ele>19.003124</ele>
        <time>2014-04-13T08:33:10Z</time>
      </trkpt>
      <trkpt lat="49.2754" lon="1.02408">
        <ele>19.504375</ele>
        <time>2014-04-13T08:33:13Z</time>
      </trkpt>
      <trkpt lat="49.27523" lon="1.024">
        <ele>20.243999</ele>
        <time>2014-04-13T08:33:16Z</time>
      </trkpt>
      <trkpt lat="49.27505" lon="1.0239">
        <ele>21.144272</ele>
        <time>2014-04-13T08:33:19Z</time>
      </trkpt>
      <trkpt lat="49.27475" lon="1.0237">
        <ele>23.028749</ele>
        <time>2014-04-13T08:33:25Z</time>
      </trkpt>
      <trkpt lat="49.2746" lon="1.02363">
        <ele>23.918749</ele>
        <time>2014-04-13T08:33:28Z</time>
      </trkpt>
      <trkpt lat="49.27485" lon="1.02343">
        <ele>23.362499</ele>
        <time>2014-04-13T08:35:24Z</time>
      </trkpt>
      <trkpt lat="49.27475" lon="1.02328">
        <ele>24.24625</ele>
        <time>2014-04-13T08:35:28Z</time>
      </trkpt>
      <trkpt lat="49.27458" lon="1.0232">
        <ele>25.248749</ele>
        <time>2014-04-13T08:35:32Z</time>
      </trkpt>
      <trkpt lat="49.27443" lon="1.02315">
        <ele>26.185101</ele>
        <time>2014-04-13T08:35:35Z</time>
      </trkpt>
      <trkpt lat="49.27428" lon="1.02308">
        <ele>27.400375</ele>
        <time>2014-04-13T08:35:38Z</time>
      </trkpt>
      <trkpt lat="49.27413" lon="1.02298">
        <ele>28.564175</ele>
        <time>2014-04-13T08:35:41Z</time>
      </trkpt>
      <trkpt lat="49.2737" lon="1.02268">
        <ele>31.07625</ele>
        <time>2014-04-13T08:35:50Z</time>
      </trkpt>
      <trkpt lat="49.27358" lon="1.02258">
        <ele>31.776875</ele>
        <time>2014-04-13T08:35:53Z</time>
      </trkpt>
      <trkpt lat="49.27343" lon="1.02245">
        <ele>33.274376</ele>
        <time>2014-04-13T08:35:57Z</time>
      </trkpt>
      <trkpt lat="49.27328" lon="1.0223">
        <ele>35.167011</ele>
        <time>2014-04-13T08:36:01Z</time>
      </trkpt>
      <trkpt lat="49.27315" lon="1.0222">
        <ele>36.76358</ele>
        <time>2014-04-13T08:36:08Z</time>
      </trkpt>
      <trkpt lat="49.27323" lon="1.022">
        <ele>36.797775</ele>
        <time>2014-04-13T08:36:13Z</time>
      </trkpt>
      <trkpt lat="49.27363" lon="1.02093">
        <ele>35.226875</ele>
        <time>2014-04-13T08:36:33Z</time>
      </trkpt>
      <trkpt lat="49.2737" lon="1.02075">
        <ele>35.499001</ele>
        <time>2014-04-13T08:36:36Z</time>
      </trkpt>
      <trkpt lat="49.2738" lon="1.02053">
        <ele>35.542236</ele>
        <time>2014-04-13T08:36:40Z</time>
      </trkpt>
      <trkpt lat="49.27438" lon="1.01935">
        <ele>36.901249</ele>
        <time>2014-04-13T08:37:01Z</time>
      </trkpt>
      <trkpt lat="49.2746" lon="1.01893">
        <ele>37.1325</ele>
        <time>2014-04-13T08:37:10Z</time>
      </trkpt>
      <trkpt lat="49.275" lon="1.01815">
        <ele>38.735485</ele>
        <time>2014-04-13T08:37:27Z</time>
      </trkpt>
      <trkpt lat="49.2749" lon="1.01795">
        <ele>39.785496</ele>
        <time>2014-04-13T08:37:31Z</time>
      </trkpt>
      <trkpt lat="49.27478" lon="1.01785">
        <ele>41.007107</ele>
        <time>2014-04-13T08:37:34Z</time>
      </trkpt>
      <trkpt lat="49.27465" lon="1.01773">
        <ele>42.46785</ele>
        <time>2014-04-13T08:37:37Z</time>
      </trkpt>
      <trkpt lat="49.27453" lon="1.01758">
        <ele>44.055901</ele>
        <time>2014-04-13T08:37:40Z</time>
      </trkpt>
      <trkpt lat="49.27433" lon="1.01733">
        <ele>45.799999</ele>
        <time>2014-04-13T08:37:45Z</time>
      </trkpt>
      <trkpt lat="49.27423" lon="1.01715">
        <ele>46.66</ele>
        <time>2014-04-13T08:37:48Z</time>
      </trkpt>
      <trkpt lat="49.2741" lon="1.0169">
        <ele>47.725895</ele>
        <time>2014-04-13T08:37:52Z</time>
      </trkpt>
      <trkpt lat="49.27398" lon="1.0167">
        <ele>48.238205</ele>
        <time>2014-04-13T08:37:55Z</time>
      </trkpt>
      <trkpt lat="49.27388" lon="1.0165">
        <ele>48.857262</ele>
        <time>2014-04-13T08:37:58Z</time>
      </trkpt>
      <trkpt lat="49.27375" lon="1.0163">
        <ele>49.548405</ele>
        <time>2014-04-13T08:38:01Z</time>
      </trkpt>
      <trkpt lat="49.27365" lon="1.0161">
        <ele>51.767162</ele>
        <time>2014-04-13T08:38:04Z</time>
      </trkpt>
      <trkpt lat="49.27353" lon="1.01585">
        <ele>53.824913</ele>
        <time>2014-04-13T08:38:08Z</time>
      </trkpt>
      <trkpt lat="49.2734" lon="1.01568">
        <ele>55.499352</ele>
        <time>2014-04-13T08:38:11Z</time>
      </trkpt>
      <trkpt lat="49.27333" lon="1.0155">
        <ele>57.198002</ele>
        <time>2014-04-13T08:38:14Z</time>
      </trkpt>
      <trkpt lat="49.2732" lon="1.01533">
        <ele>59.877735</ele>
        <time>2014-04-13T08:38:17Z</time>
      </trkpt>
      <trkpt lat="49.27308" lon="1.01515">
        <ele>61.277081</ele>
        <time>2014-04-13T08:38:20Z</time>
      </trkpt>
      <trkpt lat="49.27293" lon="1.01498">
        <ele>62.939137</ele>
        <time>2014-04-13T08:38:23Z</time>
      </trkpt>
      <trkpt lat="49.27275" lon="1.0148">
        <ele>64.510864</ele>
        <time>2014-04-13T08:38:27Z</time>
      </trkpt>
      <trkpt lat="49.27243" lon="1.01448">
        <ele>66.7705</ele>
        <time>2014-04-13T08:38:34Z</time>
      </trkpt>
      <trkpt lat="49.2723" lon="1.01435">
        <ele>66.534157</ele>
        <time>2014-04-13T08:38:37Z</time>
      </trkpt>
      <trkpt lat="49.27215" lon="1.01428">
        <ele>65.511093</ele>
        <time>2014-04-13T08:38:40Z</time>
      </trkpt>
      <trkpt lat="49.27198" lon="1.01415">
        <ele>67.515533</ele>
        <time>2014-04-13T08:38:44Z</time>
      </trkpt>
      <trkpt lat="49.27173" lon="1.01398">
        <ele>70.541031</ele>
        <time>2014-04-13T08:38:50Z</time>
      </trkpt>
      <trkpt lat="49.27135" lon="1.0137">
        <ele>74.244797</ele>
        <time>2014-04-13T08:39:00Z</time>
      </trkpt>
      <trkpt lat="49.27118" lon="1.0136">
        <ele>75.041298</ele>
        <time>2014-04-13T08:39:05Z</time>
      </trkpt>
      <trkpt lat="49.27105" lon="1.0135">
        <ele>76.687431</ele>
        <time>2014-04-13T08:39:08Z</time>
      </trkpt>
      <trkpt lat="49.2709" lon="1.0134">
        <ele>78.580673</ele>
        <time>2014-04-13T08:39:12Z</time>
      </trkpt>
      <trkpt lat="49.27075" lon="1.0133">
        <ele>79.839188</ele>
        <time>2014-04-13T08:39:16Z</time>
      </trkpt>
      <trkpt lat="49.2706" lon="1.0132">
        <ele>80.711967</ele>
        <time>2014-04-13T08:39:20Z</time>
      </trkpt>
      <trkpt lat="49.27045" lon="1.0131">
        <ele>81.085625</ele>
        <time>2014-04-13T08:39:24Z</time>
      </trkpt>
      <trkpt lat="49.27033" lon="1.013">
        <ele>80.868843</ele>
        <time>2014-04-13T08:39:28Z</time>
      </trkpt>
      <trkpt lat="49.2702" lon="1.0129">
        <ele>81.369164</ele>
        <time>2014-04-13T08:39:31Z</time>
      </trkpt>
      <trkpt lat="49.27005" lon="1.01275">
        <ele>83.638748</ele>
        <time>2014-04-13T08:39:35Z</time>
      </trkpt>
      <trkpt lat="49.26985" lon="1.01258">
        <ele>85.227531</ele>
        <time>2014-04-13T08:39:40Z</time>
      </trkpt>
      <trkpt lat="49.26963" lon="1.01235">
        <ele>86.642952</ele>
        <time>2014-04-13T08:39:46Z</time>
      </trkpt>
      <trkpt lat="49.26943" lon="1.01213">
        <ele>87.788795</ele>
        <time>2014-04-13T08:39:52Z</time>
      </trkpt>
      <trkpt lat="49.26923" lon="1.01185">
        <ele>90.862602</ele>
        <time>2014-04-13T08:39:58Z</time>
      </trkpt>
      <trkpt lat="49.26895" lon="1.0115">
        <ele>91.753799</ele>
        <time>2014-04-13T08:40:06Z</time>
      </trkpt>
      <trkpt lat="49.26883" lon="1.01133">
        <ele>94.583031</ele>
        <time>2014-04-13T08:40:10Z</time>
      </trkpt>
      <trkpt lat="49.26868" lon="1.0111">
        <ele>96.310036</ele>
        <time>2014-04-13T08:40:15Z</time>
      </trkpt>
      <trkpt lat="49.26855" lon="1.01093">
        <ele>96.27066</ele>
        <time>2014-04-13T08:40:21Z</time>
      </trkpt>
      <trkpt lat="49.26845" lon="1.01075">
        <ele>99.109169</ele>
        <time>2014-04-13T08:40:27Z</time>
      </trkpt>
      <trkpt lat="49.26835" lon="1.0106">
        <ele>102.44516</ele>
        <time>2014-04-13T08:40:32Z</time>
      </trkpt>
      <trkpt lat="49.2682" lon="1.01035">
        <ele>105.566284</ele>
        <time>2014-04-13T08:40:38Z</time>
      </trkpt>
      <trkpt lat="49.2681" lon="1.01018">
        <ele>106.599327</ele>
        <time>2014-04-13T08:40:43Z</time>
      </trkpt>
      <trkpt lat="49.268" lon="1.01003">
        <ele>109.044746</ele>
        <time>2014-04-13T08:40:47Z</time>
      </trkpt>
      <trkpt lat="49.26785" lon="1.00998">
        <ele>111.399902</ele>
        <time>2014-04-13T08:40:55Z</time>
      </trkpt>
      <trkpt lat="49.26773" lon="1.00985">
        <ele>113.452301</ele>
        <time>2014-04-13T08:41:01Z</time>
      </trkpt>
      <trkpt lat="49.26758" lon="1.0098">
        <ele>114.863403</ele>
        <time>2014-04-13T08:41:06Z</time>
      </trkpt>
      <trkpt lat="49.26745" lon="1.0097">
        <ele>116.562248</ele>
        <time>2014-04-13T08:41:11Z</time>
      </trkpt>
      <trkpt lat="49.2673" lon="1.00963">
        <ele>118.334274</ele>
        <time>2014-04-13T08:41:16Z</time>
      </trkpt>
      <trkpt lat="49.26715" lon="1.00953">
        <ele>120.005188</ele>
        <time>2014-04-13T08:41:22Z</time>
      </trkpt>
      <trkpt lat="49.26698" lon="1.00943">
        <ele>121.517784</ele>
        <time>2014-04-13T08:41:28Z</time>
      </trkpt>
      <trkpt lat="49.26675" lon="1.0093">
        <ele>123.073631</ele>
        <time>2014-04-13T08:41:36Z</time>
      </trkpt>
      <trkpt lat="49.2666" lon="1.00925">
        <ele>123.756775</ele>
        <time>2014-04-13T08:41:41Z</time>
      </trkpt>
      <trkpt lat="49.26665" lon="1.00905">
        <ele>123.845398</ele>
        <time>2014-04-13T08:41:54Z</time>
      </trkpt>
      <trkpt lat="49.26673" lon="1.00883">
        <ele>124.051651</ele>
        <time>2014-04-13T08:41:59Z</time>
      </trkpt>
      <trkpt lat="49.2668" lon="1.00865">
        <ele>124.46405</ele>
        <time>2014-04-13T08:42:03Z</time>
      </trkpt>
      <trkpt lat="49.26693" lon="1.00848">
        <ele>124.910423</ele>
        <time>2014-04-13T08:42:08Z</time>
      </trkpt>
      <trkpt lat="49.26703" lon="1.00833">
        <ele>125.408577</ele>
        <time>2014-04-13T08:42:13Z</time>
      </trkpt>
      <trkpt lat="49.26715" lon="1.00813">
        <ele>126.022804</ele>
        <time>2014-04-13T08:42:19Z</time>
      </trkpt>
      <trkpt lat="49.26725" lon="1.00798">
        <ele>126.085243</ele>
        <time>2014-04-13T08:42:23Z</time>
      </trkpt>
      <trkpt lat="49.26735" lon="1.0078">
        <ele>126.304459</ele>
        <time>2014-04-13T08:42:27Z</time>
      </trkpt>
      <trkpt lat="49.26743" lon="1.00758">
        <ele>126.772148</ele>
        <time>2014-04-13T08:42:31Z</time>
      </trkpt>
      <trkpt lat="49.26755" lon="1.00743">
        <ele>127.078125</ele>
        <time>2014-04-13T08:42:36Z</time>
      </trkpt>
      <trkpt lat="49.26765" lon="1.00723">
        <ele>127.365623</ele>
        <time>2014-04-13T08:42:43Z</time>
      </trkpt>
      <trkpt lat="49.26773" lon="1.007">
        <ele>127.690628</ele>
        <time>2014-04-13T08:42:51Z</time>
      </trkpt>
      <trkpt lat="49.26785" lon="1.00688">
        <ele>127.868126</ele>
        <time>2014-04-13T08:42:58Z</time>
      </trkpt>
      <trkpt lat="49.2679" lon="1.00668">
        <ele>128</ele>
        <time>2014-04-13T08:45:26Z</time>
      </trkpt>
      <trkpt lat="49.268" lon="1.00648">
        <ele>128</ele>
        <time>2014-04-13T08:45:30Z</time>
      </trkpt>
      <trkpt lat="49.2681" lon="1.0063">
        <ele>128</ele>
        <time>2014-04-13T08:45:34Z</time>
      </trkpt>
      <trkpt lat="49.2682" lon="1.00613">
        <ele>128</ele>
        <time>2014-04-13T08:45:38Z</time>
      </trkpt>
      <trkpt lat="49.26843" lon="1.00573">
        <ele>127.502205</ele>
        <time>2014-04-13T08:45:46Z</time>
      </trkpt>
      <trkpt lat="49.26855" lon="1.0055">
        <ele>127.119057</ele>
        <time>2014-04-13T08:45:50Z</time>
      </trkpt>
      <trkpt lat="49.2688" lon="1.00505">
        <ele>127.095551</ele>
        <time>2014-04-13T08:45:58Z</time>
      </trkpt>
      <trkpt lat="49.26898" lon="1.00505">
        <ele>127</ele>
        <time>2014-04-13T08:46:02Z</time>
      </trkpt>
      <trkpt lat="49.2691" lon="1.00515">
        <ele>127</ele>
        <time>2014-04-13T08:46:05Z</time>
      </trkpt>
      <trkpt lat="49.26925" lon="1.00518">
        <ele>127</ele>
        <time>2014-04-13T08:46:08Z</time>
      </trkpt>
      <trkpt lat="49.26943" lon="1.00518">
        <ele>126.805</ele>
        <time>2014-04-13T08:46:11Z</time>
      </trkpt>
      <trkpt lat="49.26963" lon="1.00518">
        <ele>126.360001</ele>
        <time>2014-04-13T08:46:14Z</time>
      </trkpt>
      <trkpt lat="49.2698" lon="1.00525">
        <ele>125.974998</ele>
        <time>2014-04-13T08:46:17Z</time>
      </trkpt>
      <trkpt lat="49.27023" lon="1.00543">
        <ele>125.144997</ele>
        <time>2014-04-13T08:46:24Z</time>
      </trkpt>
      <trkpt lat="49.27043" lon="1.00545">
        <ele>124.68071</ele>
        <time>2014-04-13T08:46:28Z</time>
      </trkpt>
      <trkpt lat="49.27078" lon="1.0055">
        <ele>123.665604</ele>
        <time>2014-04-13T08:46:33Z</time>
      </trkpt>
      <trkpt lat="49.2711" lon="1.00555">
        <ele>122.475754</ele>
        <time>2014-04-13T08:46:38Z</time>
      </trkpt>
      <trkpt lat="49.27193" lon="1.00573">
        <ele>115.820084</ele>
        <time>2014-04-13T08:46:49Z</time>
      </trkpt>
      <trkpt lat="49.27208" lon="1.00573">
        <ele>113.583748</ele>
        <time>2014-04-13T08:46:51Z</time>
      </trkpt>
      <trkpt lat="49.27223" lon="1.0057">
        <ele>110.314377</ele>
        <time>2014-04-13T08:46:53Z</time>
      </trkpt>
      <trkpt lat="49.27238" lon="1.00565">
        <ele>107.03125</ele>
        <time>2014-04-13T08:46:55Z</time>
      </trkpt>
      <trkpt lat="49.27268" lon="1.00563">
        <ele>100.362579</ele>
        <time>2014-04-13T08:46:58Z</time>
      </trkpt>
      <trkpt lat="49.27295" lon="1.00568">
        <ele>94.111687</ele>
        <time>2014-04-13T08:47:01Z</time>
      </trkpt>
      <trkpt lat="49.27315" lon="1.00573">
        <ele>90.914452</ele>
        <time>2014-04-13T08:47:03Z</time>
      </trkpt>
      <trkpt lat="49.27345" lon="1.0058">
        <ele>85.732651</ele>
        <time>2014-04-13T08:47:06Z</time>
      </trkpt>
      <trkpt lat="49.2738" lon="1.00593">
        <ele>78.9226</ele>
        <time>2014-04-13T08:47:10Z</time>
      </trkpt>
      <trkpt lat="49.27398" lon="1.00603">
        <ele>77.762497</ele>
        <time>2014-04-13T08:47:12Z</time>
      </trkpt>
      <trkpt lat="49.27423" lon="1.00625">
        <ele>75.861221</ele>
        <time>2014-04-13T08:47:15Z</time>
      </trkpt>
      <trkpt lat="49.27438" lon="1.00635">
        <ele>73.792297</ele>
        <time>2014-04-13T08:47:18Z</time>
      </trkpt>
      <trkpt lat="49.27453" lon="1.00625">
        <ele>72.509651</ele>
        <time>2014-04-13T08:47:22Z</time>
      </trkpt>
      <trkpt lat="49.27458" lon="1.00603">
        <ele>73.425354</ele>
        <time>2014-04-13T08:47:29Z</time>
      </trkpt>
      <trkpt lat="49.27465" lon="1.00585">
        <ele>73.72747</ele>
        <time>2014-04-13T08:47:34Z</time>
      </trkpt>
      <trkpt lat="49.2746" lon="1.00565">
        <ele>74.734749</ele>
        <time>2014-04-13T08:47:42Z</time>
      </trkpt>
      <trkpt lat="49.27453" lon="1.00548">
        <ele>76.527023</ele>
        <time>2014-04-13T08:47:52Z</time>
      </trkpt>
      <trkpt lat="49.2744" lon="1.00535">
        <ele>79.58091</ele>
        <time>2014-04-13T08:48:04Z</time>
      </trkpt>
      <trkpt lat="49.27428" lon="1.00525">
        <ele>83.037048</ele>
        <time>2014-04-13T08:48:16Z</time>
      </trkpt>
      <trkpt lat="49.27415" lon="1.00513">
        <ele>84.670044</ele>
        <time>2014-04-13T08:48:26Z</time>
      </trkpt>
      <trkpt lat="49.27405" lon="1.00498">
        <ele>86.69799</ele>
        <time>2014-04-13T08:48:38Z</time>
      </trkpt>
      <trkpt lat="49.27393" lon="1.00488">
        <ele>89.953369</ele>
        <time>2014-04-13T08:48:47Z</time>
      </trkpt>
      <trkpt lat="49.2738" lon="1.00475">
        <ele>93.878448</ele>
        <time>2014-04-13T08:48:59Z</time>
      </trkpt>
      <trkpt lat="49.2737" lon="1.0046">
        <ele>97.173782</ele>
        <time>2014-04-13T08:49:11Z</time>
      </trkpt>
      <trkpt lat="49.2736" lon="1.00445">
        <ele>99.817589</ele>
        <time>2014-04-13T08:49:21Z</time>
      </trkpt>
      <trkpt lat="49.27353" lon="1.00428">
        <ele>102.103249</ele>
        <time>2014-04-13T08:49:32Z</time>
      </trkpt>
      <trkpt lat="49.27343" lon="1.00403">
        <ele>105.705627</ele>
        <time>2014-04-13T08:49:43Z</time>
      </trkpt>
      <trkpt lat="49.27335" lon="1.00385">
        <ele>108.179047</ele>
        <time>2014-04-13T08:49:52Z</time>
      </trkpt>
      <trkpt lat="49.27338" lon="1.00363">
        <ele>107.311356</ele>
        <time>2014-04-13T08:49:59Z</time>
      </trkpt>
      <trkpt lat="49.2734" lon="1.0034">
        <ele>106.358597</ele>
        <time>2014-04-13T08:50:05Z</time>
      </trkpt>
      <trkpt lat="49.27335" lon="1.0032">
        <ele>107.159737</ele>
        <time>2014-04-13T08:50:11Z</time>
      </trkpt>
      <trkpt lat="49.27323" lon="1.0031">
        <ele>109.351059</ele>
        <time>2014-04-13T08:50:18Z</time>
      </trkpt>
      <trkpt lat="49.27313" lon="1.00295">
        <ele>110.921402</ele>
        <time>2014-04-13T08:50:26Z</time>
      </trkpt>
      <trkpt lat="49.273" lon="1.0031">
        <ele>113.262497</ele>
        <time>2014-04-13T08:50:34Z</time>
      </trkpt>
      <trkpt lat="49.27285" lon="1.00315">
        <ele>115.449715</ele>
        <time>2014-04-13T08:50:44Z</time>
      </trkpt>
      <trkpt lat="49.2727" lon="1.00315">
        <ele>116.801147</ele>
        <time>2014-04-13T08:50:53Z</time>
      </trkpt>
      <trkpt lat="49.2725" lon="1.00318">
        <ele>118.653091</ele>
        <time>2014-04-13T08:50:59Z</time>
      </trkpt>
      <trkpt lat="49.27235" lon="1.0032">
        <ele>120</ele>
        <time>2014-04-13T08:51:03Z</time>
      </trkpt>
      <trkpt lat="49.27218" lon="1.0032">
        <ele>121.540001</ele>
        <time>2014-04-13T08:51:07Z</time>
      </trkpt>
      <trkpt lat="49.27195" lon="1.0032">
        <ele>123.139999</ele>
        <time>2014-04-13T08:51:13Z</time>
      </trkpt>
      <trkpt lat="49.2718" lon="1.00318">
        <ele>123.470001</ele>
        <time>2014-04-13T08:51:17Z</time>
      </trkpt>
      <trkpt lat="49.27168" lon="1.00303">
        <ele>123.745003</ele>
        <time>2014-04-13T08:51:21Z</time>
      </trkpt>
      <trkpt lat="49.27153" lon="1.00293">
        <ele>124</ele>
        <time>2014-04-13T08:51:25Z</time>
      </trkpt>
      <trkpt lat="49.2714" lon="1.00278">
        <ele>124</ele>
        <time>2014-04-13T08:51:31Z</time>
      </trkpt>
      <trkpt lat="49.2713" lon="1.00258">
        <ele>123.999374</ele>
        <time>2014-04-13T08:51:36Z</time>
      </trkpt>
      <trkpt lat="49.27118" lon="1.00248">
        <ele>123.848747</ele>
        <time>2014-04-13T08:51:39Z</time>
      </trkpt>
      <trkpt lat="49.27128" lon="1.00233">
        <ele>123.634377</ele>
        <time>2014-04-13T08:51:46Z</time>
      </trkpt>
      <trkpt lat="49.27143" lon="1.00223">
        <ele>123.494377</ele>
        <time>2014-04-13T08:51:49Z</time>
      </trkpt>
      <trkpt lat="49.27153" lon="1.00208">
        <ele>123.279373</ele>
        <time>2014-04-13T08:51:52Z</time>
      </trkpt>
      <trkpt lat="49.27168" lon="1.00188">
        <ele>122.107498</ele>
        <time>2014-04-13T08:51:56Z</time>
      </trkpt>
      <trkpt lat="49.2718" lon="1.00175">
        <ele>120.206253</ele>
        <time>2014-04-13T08:51:59Z</time>
      </trkpt>
      <trkpt lat="49.27193" lon="1.00163">
        <ele>118.301247</ele>
        <time>2014-04-13T08:52:02Z</time>
      </trkpt>
      <trkpt lat="49.2721" lon="1.00148">
        <ele>115.845001</ele>
        <time>2014-04-13T08:52:05Z</time>
      </trkpt>
      <trkpt lat="49.27228" lon="1.00133">
        <ele>113.403748</ele>
        <time>2014-04-13T08:52:08Z</time>
      </trkpt>
      <trkpt lat="49.2724" lon="1.0011">
        <ele>110.394997</ele>
        <time>2014-04-13T08:52:11Z</time>
      </trkpt>
      <trkpt lat="49.27253" lon="1.00098">
        <ele>107.555</ele>
        <time>2014-04-13T08:52:13Z</time>
      </trkpt>
      <trkpt lat="49.27273" lon="1.00108">
        <ele>106.110001</ele>
        <time>2014-04-13T08:52:16Z</time>
      </trkpt>
      <trkpt lat="49.27295" lon="1.00115">
        <ele>104.04615</ele>
        <time>2014-04-13T08:52:19Z</time>
      </trkpt>
      <trkpt lat="49.27333" lon="1.00128">
        <ele>100.097977</ele>
        <time>2014-04-13T08:52:24Z</time>
      </trkpt>
      <trkpt lat="49.27355" lon="1.00135">
        <ele>96.414421</ele>
        <time>2014-04-13T08:52:27Z</time>
      </trkpt>
      <trkpt lat="49.2737" lon="1.00138">
        <ele>93.786499</ele>
        <time>2014-04-13T08:52:29Z</time>
      </trkpt>
      <trkpt lat="49.27393" lon="1.00145">
        <ele>90.059998</ele>
        <time>2014-04-13T08:52:32Z</time>
      </trkpt>
      <trkpt lat="49.27408" lon="1.00148">
        <ele>87.300003</ele>
        <time>2014-04-13T08:52:34Z</time>
      </trkpt>
      <trkpt lat="49.2743" lon="1.0015">
        <ele>82.844765</ele>
        <time>2014-04-13T08:52:37Z</time>
      </trkpt>
      <trkpt lat="49.27445" lon="1.00143">
        <ele>78.806808</ele>
        <time>2014-04-13T08:52:39Z</time>
      </trkpt>
      <trkpt lat="49.2746" lon="1.0013">
        <ele>74.713989</ele>
        <time>2014-04-13T08:52:42Z</time>
      </trkpt>
      <trkpt lat="49.27478" lon="1.00133">
        <ele>70.469101</ele>
        <time>2014-04-13T08:52:45Z</time>
      </trkpt>
      <trkpt lat="49.2749" lon="1.00143">
        <ele>67.308884</ele>
        <time>2014-04-13T08:52:47Z</time>
      </trkpt>
      <trkpt lat="49.27498" lon="1.0016">
        <ele>65.622353</ele>
        <time>2014-04-13T08:52:49Z</time>
      </trkpt>
      <trkpt lat="49.2751" lon="1.00195">
        <ele>61.798737</ele>
        <time>2014-04-13T08:52:53Z</time>
      </trkpt>
      <trkpt lat="49.27523" lon="1.00208">
        <ele>58.407715</ele>
        <time>2014-04-13T08:52:57Z</time>
      </trkpt>
      <trkpt lat="49.27525" lon="1.00183">
        <ele>58.288002</ele>
        <time>2014-04-13T08:53:04Z</time>
      </trkpt>
      <trkpt lat="49.27523" lon="1.00158">
        <ele>58.659912</ele>
        <time>2014-04-13T08:53:10Z</time>
      </trkpt>
      <trkpt lat="49.27518" lon="1.00135">
        <ele>59.481113</ele>
        <time>2014-04-13T08:53:15Z</time>
      </trkpt>
      <trkpt lat="49.27513" lon="1.00115">
        <ele>60.311501</ele>
        <time>2014-04-13T08:53:19Z</time>
      </trkpt>
      <trkpt lat="49.275" lon="1.00098">
        <ele>62.605743</ele>
        <time>2014-04-13T08:53:24Z</time>
      </trkpt>
      <trkpt lat="49.27488" lon="1.00083">
        <ele>64.473915</ele>
        <time>2014-04-13T08:53:29Z</time>
      </trkpt>
      <trkpt lat="49.27475" lon="1.0007">
        <ele>66.214912</ele>
        <time>2014-04-13T08:53:34Z</time>
      </trkpt>
      <trkpt lat="49.27463" lon="1.0006">
        <ele>67.640953</ele>
        <time>2014-04-13T08:53:39Z</time>
      </trkpt>
      <trkpt lat="49.27445" lon="1.00045">
        <ele>68.725235</ele>
        <time>2014-04-13T08:53:45Z</time>
      </trkpt>
      <trkpt lat="49.27433" lon="1.00035">
        <ele>69.219162</ele>
        <time>2014-04-13T08:53:50Z</time>
      </trkpt>
      <trkpt lat="49.27418" lon="1.00025">
        <ele>70.138748</ele>
        <time>2014-04-13T08:53:56Z</time>
      </trkpt>
      <trkpt lat="49.274" lon="1.0001">
        <ele>70.96875</ele>
        <time>2014-04-13T08:54:02Z</time>
      </trkpt>
      <trkpt lat="49.2739" lon="0.99995">
        <ele>70.463753</ele>
        <time>2014-04-13T08:54:07Z</time>
      </trkpt>
      <trkpt lat="49.27375" lon="0.9998">
        <ele>70.911247</ele>
        <time>2014-04-13T08:54:12Z</time>
      </trkpt>
      <trkpt lat="49.27363" lon="0.9997">
        <ele>71.925003</ele>
        <time>2014-04-13T08:54:17Z</time>
      </trkpt>
      <trkpt lat="49.27348" lon="0.99963">
        <ele>73.745003</ele>
        <time>2014-04-13T08:54:21Z</time>
      </trkpt>
      <trkpt lat="49.27333" lon="0.9995">
        <ele>74.839996</ele>
        <time>2014-04-13T08:54:27Z</time>
      </trkpt>
      <trkpt lat="49.27318" lon="0.99943">
        <ele>76.373802</ele>
        <time>2014-04-13T08:54:32Z</time>
      </trkpt>
      <trkpt lat="49.27303" lon="0.99943">
        <ele>78.93869</ele>
        <time>2014-04-13T08:54:37Z</time>
      </trkpt>
      <trkpt lat="49.27285" lon="0.99938">
        <ele>81.034103</ele>
        <time>2014-04-13T08:54:43Z</time>
      </trkpt>
      <trkpt lat="49.2727" lon="0.99928">
        <ele>81.453888</ele>
        <time>2014-04-13T08:54:50Z</time>
      </trkpt>
      <trkpt lat="49.27255" lon="0.99923">
        <ele>82.826912</ele>
        <time>2014-04-13T08:54:55Z</time>
      </trkpt>
      <trkpt lat="49.27238" lon="0.99915">
        <ele>83.925957</ele>
        <time>2014-04-13T08:55:01Z</time>
      </trkpt>
      <trkpt lat="49.2722" lon="0.99905">
        <ele>83.511246</ele>
        <time>2014-04-13T08:55:08Z</time>
      </trkpt>
      <trkpt lat="49.27205" lon="0.99905">
        <ele>84.772499</ele>
        <time>2014-04-13T08:55:13Z</time>
      </trkpt>
      <trkpt lat="49.2719" lon="0.9991">
        <ele>86.598747</ele>
        <time>2014-04-13T08:55:19Z</time>
      </trkpt>
      <trkpt lat="49.2717" lon="0.9992">
        <ele>88.582504</ele>
        <time>2014-04-13T08:55:26Z</time>
      </trkpt>
      <trkpt lat="49.27155" lon="0.99928">
        <ele>89.955002</ele>
        <time>2014-04-13T08:55:33Z</time>
      </trkpt>
      <trkpt lat="49.27138" lon="0.99935">
        <ele>90.923248</ele>
        <time>2014-04-13T08:55:39Z</time>
      </trkpt>
      <trkpt lat="49.27123" lon="0.99938">
        <ele>91.140915</ele>
        <time>2014-04-13T08:55:43Z</time>
      </trkpt>
      <trkpt lat="49.27098" lon="0.9994">
        <ele>91.212936</ele>
        <time>2014-04-13T08:55:52Z</time>
      </trkpt>
      <trkpt lat="49.27083" lon="0.99943">
        <ele>91.391563</ele>
        <time>2014-04-13T08:55:57Z</time>
      </trkpt>
      <trkpt lat="49.27068" lon="0.9995">
        <ele>92.517235</ele>
        <time>2014-04-13T08:56:02Z</time>
      </trkpt>
      <trkpt lat="49.27053" lon="0.99958">
        <ele>93.675987</ele>
        <time>2014-04-13T08:56:07Z</time>
      </trkpt>
      <trkpt lat="49.27038" lon="0.99963">
        <ele>94.307037</ele>
        <time>2014-04-13T08:56:12Z</time>
      </trkpt>
      <trkpt lat="49.27023" lon="0.99965">
        <ele>94.461861</ele>
        <time>2014-04-13T08:56:18Z</time>
      </trkpt>
      <trkpt lat="49.27005" lon="0.99973">
        <ele>95.614998</ele>
        <time>2014-04-13T08:56:24Z</time>
      </trkpt>
      <trkpt lat="49.2699" lon="0.9998">
        <ele>96.852501</ele>
        <time>2014-04-13T08:56:30Z</time>
      </trkpt>
      <trkpt lat="49.26975" lon="0.9999">
        <ele>98.576874</ele>
        <time>2014-04-13T08:56:36Z</time>
      </trkpt>
      <trkpt lat="49.2696" lon="0.9999">
        <ele>98.78875</ele>
        <time>2014-04-13T08:56:41Z</time>
      </trkpt>
      <trkpt lat="49.26935" lon="0.9999">
        <ele>99.226875</ele>
        <time>2014-04-13T08:56:48Z</time>
      </trkpt>
      <trkpt lat="49.2692" lon="0.99993">
        <ele>99.801598</ele>
        <time>2014-04-13T08:56:53Z</time>
      </trkpt>
      <trkpt lat="49.26905" lon="0.99988">
        <ele>98.764374</ele>
        <time>2014-04-13T08:56:58Z</time>
      </trkpt>
      <trkpt lat="49.2689" lon="0.99983">
        <ele>97.740623</ele>
        <time>2014-04-13T08:57:04Z</time>
      </trkpt>
      <trkpt lat="49.26873" lon="0.99978">
        <ele>97.128212</ele>
        <time>2014-04-13T08:57:11Z</time>
      </trkpt>
      <trkpt lat="49.26858" lon="0.99978">
        <ele>97.662865</ele>
        <time>2014-04-13T08:57:16Z</time>
      </trkpt>
      <trkpt lat="49.26843" lon="0.99978">
        <ele>98.193748</ele>
        <time>2014-04-13T08:57:20Z</time>
      </trkpt>
      <trkpt lat="49.26828" lon="0.99975">
        <ele>98.195953</ele>
        <time>2014-04-13T08:57:24Z</time>
      </trkpt>
      <trkpt lat="49.26805" lon="0.9997">
        <ele>97.87529</ele>
        <time>2014-04-13T08:57:30Z</time>
      </trkpt>
      <trkpt lat="49.2679" lon="0.9997">
        <ele>98.462471</ele>
        <time>2014-04-13T08:57:34Z</time>
      </trkpt>
      <trkpt lat="49.26775" lon="0.99968">
        <ele>98.96225</ele>
        <time>2014-04-13T08:57:38Z</time>
      </trkpt>
      <trkpt lat="49.26755" lon="0.99965">
        <ele>99.828766</ele>
        <time>2014-04-13T08:57:43Z</time>
      </trkpt>
      <trkpt lat="49.2674" lon="0.99963">
        <ele>100.82</ele>
        <time>2014-04-13T08:57:47Z</time>
      </trkpt>
      <trkpt lat="49.26725" lon="0.99958">
        <ele>101.727501</ele>
        <time>2014-04-13T08:57:52Z</time>
      </trkpt>
      <trkpt lat="49.2671" lon="0.9995">
        <ele>102.106255</ele>
        <time>2014-04-13T08:57:56Z</time>
      </trkpt>
      <trkpt lat="49.26693" lon="0.9994">
        <ele>102.493095</ele>
        <time>2014-04-13T08:58:01Z</time>
      </trkpt>
      <trkpt lat="49.26678" lon="0.99928">
        <ele>102.205605</ele>
        <time>2014-04-13T08:58:05Z</time>
      </trkpt>
      <trkpt lat="49.2666" lon="0.9991">
        <ele>101.721802</ele>
        <time>2014-04-13T08:58:09Z</time>
      </trkpt>
      <trkpt lat="49.2664" lon="0.99888">
        <ele>101.728622</ele>
        <time>2014-04-13T08:58:13Z</time>
      </trkpt>
      <trkpt lat="49.2662" lon="0.99865">
        <ele>101.571236</ele>
        <time>2014-04-13T08:58:17Z</time>
      </trkpt>
      <trkpt lat="49.26608" lon="0.99848">
        <ele>101.347</ele>
        <time>2014-04-13T08:58:20Z</time>
      </trkpt>
      <trkpt lat="49.26598" lon="0.99833">
        <ele>101.586136</ele>
        <time>2014-04-13T08:58:23Z</time>
      </trkpt>
      <trkpt lat="49.26588" lon="0.99818">
        <ele>101.984024</ele>
        <time>2014-04-13T08:58:26Z</time>
      </trkpt>
      <trkpt lat="49.2658" lon="0.998">
        <ele>101.413254</ele>
        <time>2014-04-13T08:58:29Z</time>
      </trkpt>
      <trkpt lat="49.2657" lon="0.99783">
        <ele>102.11866</ele>
        <time>2014-04-13T08:58:32Z</time>
      </trkpt>
      <trkpt lat="49.26565" lon="0.99758">
        <ele>101.294899</ele>
        <time>2014-04-13T08:58:36Z</time>
      </trkpt>
      <trkpt lat="49.2656" lon="0.9972">
        <ele>99.726715</ele>
        <time>2014-04-13T08:58:41Z</time>
      </trkpt>
      <trkpt lat="49.2656" lon="0.99698">
        <ele>98.591072</ele>
        <time>2014-04-13T08:58:44Z</time>
      </trkpt>
      <trkpt lat="49.2656" lon="0.99673">
        <ele>97.275253</ele>
        <time>2014-04-13T08:58:47Z</time>
      </trkpt>
      <trkpt lat="49.2656" lon="0.9965">
        <ele>96.207703</ele>
        <time>2014-04-13T08:58:50Z</time>
      </trkpt>
      <trkpt lat="49.26563" lon="0.99625">
        <ele>94.651688</ele>
        <time>2014-04-13T08:58:53Z</time>
      </trkpt>
      <trkpt lat="49.26565" lon="0.996">
        <ele>93.197502</ele>
        <time>2014-04-13T08:58:56Z</time>
      </trkpt>
      <trkpt lat="49.26565" lon="0.9957">
        <ele>91.381096</ele>
        <time>2014-04-13T08:58:59Z</time>
      </trkpt>
      <trkpt lat="49.26553" lon="0.99553">
        <ele>92.321251</ele>
        <time>2014-04-13T08:59:02Z</time>
      </trkpt>
      <trkpt lat="49.26535" lon="0.99535">
        <ele>94.214996</ele>
        <time>2014-04-13T08:59:05Z</time>
      </trkpt>
      <trkpt lat="49.26525" lon="0.99513">
        <ele>94.881561</ele>
        <time>2014-04-13T08:59:08Z</time>
      </trkpt>
      <trkpt lat="49.26518" lon="0.99488">
        <ele>97.43782</ele>
        <time>2014-04-13T08:59:11Z</time>
      </trkpt>
      <trkpt lat="49.26515" lon="0.99465">
        <ele>98.950462</ele>
        <time>2014-04-13T08:59:14Z</time>
      </trkpt>
      <trkpt lat="49.26513" lon="0.9944">
        <ele>99.926247</ele>
        <time>2014-04-13T08:59:18Z</time>
      </trkpt>
      <trkpt lat="49.26505" lon="0.99418">
        <ele>101.025002</ele>
        <time>2014-04-13T08:59:22Z</time>
      </trkpt>
      <trkpt lat="49.26495" lon="0.99398">
        <ele>102.854996</ele>
        <time>2014-04-13T08:59:25Z</time>
      </trkpt>
      <trkpt lat="49.26483" lon="0.9938">
        <ele>105.290428</ele>
        <time>2014-04-13T08:59:28Z</time>
      </trkpt>
      <trkpt lat="49.26475" lon="0.99358">
        <ele>105.438095</ele>
        <time>2014-04-13T08:59:31Z</time>
      </trkpt>
      <trkpt lat="49.2647" lon="0.99335">
        <ele>104.924377</ele>
        <time>2014-04-13T08:59:34Z</time>
      </trkpt>
      <trkpt lat="49.26463" lon="0.99295">
        <ele>104.871857</ele>
        <time>2014-04-13T08:59:39Z</time>
      </trkpt>
      <trkpt lat="49.26463" lon="0.9927">
        <ele>103.950249</ele>
        <time>2014-04-13T08:59:42Z</time>
      </trkpt>
      <trkpt lat="49.2646" lon="0.99245">
        <ele>103.756927</ele>
        <time>2014-04-13T08:59:45Z</time>
      </trkpt>
      <trkpt lat="49.26455" lon="0.99218">
        <ele>104.479324</ele>
        <time>2014-04-13T08:59:48Z</time>
      </trkpt>
      <trkpt lat="49.2645" lon="0.99195">
        <ele>105.222504</ele>
        <time>2014-04-13T08:59:51Z</time>
      </trkpt>
      <trkpt lat="49.2644" lon="0.99178">
        <ele>107.271408</ele>
        <time>2014-04-13T08:59:54Z</time>
      </trkpt>
      <trkpt lat="49.26433" lon="0.9916">
        <ele>109.019997</ele>
        <time>2014-04-13T08:59:57Z</time>
      </trkpt>
      <trkpt lat="49.26428" lon="0.99138">
        <ele>110.175003</ele>
        <time>2014-04-13T09:00:01Z</time>
      </trkpt>
      <trkpt lat="49.26428" lon="0.99113">
        <ele>110.120003</ele>
        <time>2014-04-13T09:00:05Z</time>
      </trkpt>
      <trkpt lat="49.2642" lon="0.9909">
        <ele>110.914696</ele>
        <time>2014-04-13T09:00:09Z</time>
      </trkpt>
      <trkpt lat="49.2641" lon="0.99075">
        <ele>112.05619</ele>
        <time>2014-04-13T09:00:13Z</time>
      </trkpt>
      <trkpt lat="49.26395" lon="0.99063">
        <ele>114.181183</ele>
        <time>2014-04-13T09:00:18Z</time>
      </trkpt>
      <trkpt lat="49.2638" lon="0.9905">
        <ele>116.220581</ele>
        <time>2014-04-13T09:00:22Z</time>
      </trkpt>
      <trkpt lat="49.26368" lon="0.99038">
        <ele>116.862846</ele>
        <time>2014-04-13T09:00:26Z</time>
      </trkpt>
      <trkpt lat="49.2635" lon="0.99035">
        <ele>118.842186</ele>
        <time>2014-04-13T09:00:30Z</time>
      </trkpt>
      <trkpt lat="49.26338" lon="0.9905">
        <ele>121.900002</ele>
        <time>2014-04-13T09:00:38Z</time>
      </trkpt>
      <trkpt lat="49.26333" lon="0.9907">
        <ele>123.68</ele>
        <time>2014-04-13T09:00:44Z</time>
      </trkpt>
      <trkpt lat="49.2633" lon="0.99093">
        <ele>125.121536</ele>
        <time>2014-04-13T09:00:50Z</time>
      </trkpt>
      <trkpt lat="49.2632" lon="0.99113">
        <ele>126.629997</ele>
        <time>2014-04-13T09:00:56Z</time>
      </trkpt>
      <trkpt lat="49.26315" lon="0.99138">
        <ele>126.860001</ele>
        <time>2014-04-13T09:01:02Z</time>
      </trkpt>
      <trkpt lat="49.26308" lon="0.99155">
        <ele>127.209999</ele>
        <time>2014-04-13T09:01:08Z</time>
      </trkpt>
      <trkpt lat="49.26303" lon="0.99178">
        <ele>127.440002</ele>
        <time>2014-04-13T09:01:17Z</time>
      </trkpt>
      <trkpt lat="49.26303" lon="0.99203">
        <ele>127.537483</ele>
        <time>2014-04-13T09:01:24Z</time>
      </trkpt>
      <trkpt lat="49.26298" lon="0.99223">
        <ele>127.777298</ele>
        <time>2014-04-13T09:01:29Z</time>
      </trkpt>
      <trkpt lat="49.2629" lon="0.99243">
        <ele>128.014999</ele>
        <time>2014-04-13T09:01:34Z</time>
      </trkpt>
      <trkpt lat="49.26288" lon="0.99268">
        <ele>128.334381</ele>
        <time>2014-04-13T09:01:39Z</time>
      </trkpt>
      <trkpt lat="49.26285" lon="0.99293">
        <ele>128.762497</ele>
        <time>2014-04-13T09:01:46Z</time>
      </trkpt>
      <trkpt lat="49.2629" lon="0.99313">
        <ele>128.946243</ele>
        <time>2014-04-13T09:01:51Z</time>
      </trkpt>
      <trkpt lat="49.26283" lon="0.99333">
        <ele>129.205002</ele>
        <time>2014-04-13T09:01:57Z</time>
      </trkpt>
      <trkpt lat="49.2627" lon="0.99348">
        <ele>129.485001</ele>
        <time>2014-04-13T09:02:03Z</time>
      </trkpt>
      <trkpt lat="49.26258" lon="0.99358">
        <ele>129.764999</ele>
        <time>2014-04-13T09:02:09Z</time>
      </trkpt>
      <trkpt lat="49.26243" lon="0.99365">
        <ele>130</ele>
        <time>2014-04-13T09:02:17Z</time>
      </trkpt>
      <trkpt lat="49.26228" lon="0.99358">
        <ele>130</ele>
        <time>2014-04-13T09:02:26Z</time>
      </trkpt>
      <trkpt lat="49.26213" lon="0.99348">
        <ele>130</ele>
        <time>2014-04-13T09:02:34Z</time>
      </trkpt>
      <trkpt lat="49.26205" lon="0.9933">
        <ele>130</ele>
        <time>2014-04-13T09:02:40Z</time>
      </trkpt>
      <trkpt lat="49.26203" lon="0.99308">
        <ele>129.996201</ele>
        <time>2014-04-13T09:02:46Z</time>
      </trkpt>
      <trkpt lat="49.26195" lon="0.9929">
        <ele>130</ele>
        <time>2014-04-13T09:02:52Z</time>
      </trkpt>
      <trkpt lat="49.26185" lon="0.99275">
        <ele>130</ele>
        <time>2014-04-13T09:03:16Z</time>
      </trkpt>
      <trkpt lat="49.26168" lon="0.99248">
        <ele>130</ele>
        <time>2014-04-13T09:03:24Z</time>
      </trkpt>
      <trkpt lat="49.26153" lon="0.99225">
        <ele>130</ele>
        <time>2014-04-13T09:03:30Z</time>
      </trkpt>
      <trkpt lat="49.2614" lon="0.99205">
        <ele>130</ele>
        <time>2014-04-13T09:03:36Z</time>
      </trkpt>
      <trkpt lat="49.2613" lon="0.99185">
        <ele>130</ele>
        <time>2014-04-13T09:03:41Z</time>
      </trkpt>
      <trkpt lat="49.2612" lon="0.99168">
        <ele>130</ele>
        <time>2014-04-13T09:03:45Z</time>
      </trkpt>
      <trkpt lat="49.2609" lon="0.99113">
        <ele>130</ele>
        <time>2014-04-13T09:03:56Z</time>
      </trkpt>
      <trkpt lat="49.26078" lon="0.99093">
        <ele>130</ele>
        <time>2014-04-13T09:04:00Z</time>
      </trkpt>
      <trkpt lat="49.26065" lon="0.9908">
        <ele>130</ele>
        <time>2014-04-13T09:04:03Z</time>
      </trkpt>
      <trkpt lat="49.26048" lon="0.9907">
        <ele>130</ele>
        <time>2014-04-13T09:04:07Z</time>
      </trkpt>
      <trkpt lat="49.2603" lon="0.99068">
        <ele>130</ele>
        <time>2014-04-13T09:04:12Z</time>
      </trkpt>
      <trkpt lat="49.26015" lon="0.99073">
        <ele>130</ele>
        <time>2014-04-13T09:04:16Z</time>
      </trkpt>
      <trkpt lat="49.26" lon="0.99085">
        <ele>130</ele>
        <time>2014-04-13T09:04:20Z</time>
      </trkpt>
      <trkpt lat="49.25988" lon="0.99103">
        <ele>130</ele>
        <time>2014-04-13T09:04:23Z</time>
      </trkpt>
      <trkpt lat="49.25978" lon="0.99123">
        <ele>130</ele>
        <time>2014-04-13T09:04:26Z</time>
      </trkpt>
      <trkpt lat="49.25943" lon="0.9919">
        <ele>130</ele>
        <time>2014-04-13T09:04:36Z</time>
      </trkpt>
      <trkpt lat="49.25928" lon="0.99218">
        <ele>129.970474</ele>
        <time>2014-04-13T09:04:40Z</time>
      </trkpt>
      <trkpt lat="49.25913" lon="0.99245">
        <ele>129.672668</ele>
        <time>2014-04-13T09:04:44Z</time>
      </trkpt>
      <trkpt lat="49.25898" lon="0.99255">
        <ele>129.298798</ele>
        <time>2014-04-13T09:04:47Z</time>
      </trkpt>
      <trkpt lat="49.2588" lon="0.99255">
        <ele>129.066269</ele>
        <time>2014-04-13T09:04:50Z</time>
      </trkpt>
      <trkpt lat="49.25863" lon="0.99243">
        <ele>129.125137</ele>
        <time>2014-04-13T09:04:53Z</time>
      </trkpt>
      <trkpt lat="49.25853" lon="0.9922">
        <ele>129.152527</ele>
        <time>2014-04-13T09:04:56Z</time>
      </trkpt>
      <trkpt lat="49.2584" lon="0.992">
        <ele>129</ele>
        <time>2014-04-13T09:04:59Z</time>
      </trkpt>
      <trkpt lat="49.25828" lon="0.99185">
        <ele>129.117493</ele>
        <time>2014-04-13T09:05:02Z</time>
      </trkpt>
      <trkpt lat="49.25813" lon="0.99175">
        <ele>129.268753</ele>
        <time>2014-04-13T09:05:05Z</time>
      </trkpt>
      <trkpt lat="49.25793" lon="0.99163">
        <ele>129.458755</ele>
        <time>2014-04-13T09:05:09Z</time>
      </trkpt>
      <trkpt lat="49.25778" lon="0.9917">
        <ele>129.354996</ele>
        <time>2014-04-13T09:05:13Z</time>
      </trkpt>
      <trkpt lat="49.25775" lon="0.99195">
        <ele>128.996231</ele>
        <time>2014-04-13T09:05:17Z</time>
      </trkpt>
      <trkpt lat="49.25775" lon="0.99218">
        <ele>128.841965</ele>
        <time>2014-04-13T09:05:20Z</time>
      </trkpt>
      <trkpt lat="49.25773" lon="0.99243">
        <ele>128.625839</ele>
        <time>2014-04-13T09:05:25Z</time>
      </trkpt>
      <trkpt lat="49.25775" lon="0.99273">
        <ele>128.377502</ele>
        <time>2014-04-13T09:05:29Z</time>
      </trkpt>
      <trkpt lat="49.25773" lon="0.993">
        <ele>127.918129</ele>
        <time>2014-04-13T09:05:32Z</time>
      </trkpt>
      <trkpt lat="49.25768" lon="0.99328">
        <ele>127.399376</ele>
        <time>2014-04-13T09:05:35Z</time>
      </trkpt>
      <trkpt lat="49.25758" lon="0.99355">
        <ele>127.070091</ele>
        <time>2014-04-13T09:05:38Z</time>
      </trkpt>
      <trkpt lat="49.25743" lon="0.9938">
        <ele>126.837555</ele>
        <time>2014-04-13T09:05:41Z</time>
      </trkpt>
      <trkpt lat="49.2573" lon="0.994">
        <ele>126.491699</ele>
        <time>2014-04-13T09:05:44Z</time>
      </trkpt>
      <trkpt lat="49.25708" lon="0.99435">
        <ele>126</ele>
        <time>2014-04-13T09:05:49Z</time>
      </trkpt>
      <trkpt lat="49.25695" lon="0.99455">
        <ele>126</ele>
        <time>2014-04-13T09:05:52Z</time>
      </trkpt>
      <trkpt lat="49.2568" lon="0.99473">
        <ele>125.985001</ele>
        <time>2014-04-13T09:05:56Z</time>
      </trkpt>
      <trkpt lat="49.25668" lon="0.99488">
        <ele>125.771248</ele>
        <time>2014-04-13T09:06:03Z</time>
      </trkpt>
      <trkpt lat="49.2565" lon="0.9951">
        <ele>125.628754</ele>
        <time>2014-04-13T09:06:08Z</time>
      </trkpt>
      <trkpt lat="49.25643" lon="0.9953">
        <ele>125.58094</ele>
        <time>2014-04-13T09:06:11Z</time>
      </trkpt>
      <trkpt lat="49.25633" lon="0.99568">
        <ele>125.349373</ele>
        <time>2014-04-13T09:06:17Z</time>
      </trkpt>
      <trkpt lat="49.2563" lon="0.99593">
        <ele>125.046249</ele>
        <time>2014-04-13T09:06:21Z</time>
      </trkpt>
      <trkpt lat="49.25625" lon="0.99615">
        <ele>124.769997</ele>
        <time>2014-04-13T09:06:24Z</time>
      </trkpt>
      <trkpt lat="49.25618" lon="0.99648">
        <ele>124.049706</ele>
        <time>2014-04-13T09:06:28Z</time>
      </trkpt>
      <trkpt lat="49.25615" lon="0.99675">
        <ele>123.401299</ele>
        <time>2014-04-13T09:06:31Z</time>
      </trkpt>
      <trkpt lat="49.25613" lon="0.99705">
        <ele>122.667503</ele>
        <time>2014-04-13T09:06:34Z</time>
      </trkpt>
      <trkpt lat="49.25605" lon="0.99733">
        <ele>122.221252</ele>
        <time>2014-04-13T09:06:37Z</time>
      </trkpt>
      <trkpt lat="49.256" lon="0.9976">
        <ele>121.826874</ele>
        <time>2014-04-13T09:06:40Z</time>
      </trkpt>
      <trkpt lat="49.25595" lon="0.99793">
        <ele>121.595627</ele>
        <time>2014-04-13T09:06:44Z</time>
      </trkpt>
      <trkpt lat="49.25588" lon="0.99828">
        <ele>121.589996</ele>
        <time>2014-04-13T09:06:48Z</time>
      </trkpt>
      <trkpt lat="49.25583" lon="0.99855">
        <ele>121.830002</ele>
        <time>2014-04-13T09:06:51Z</time>
      </trkpt>
      <trkpt lat="49.25578" lon="0.99883">
        <ele>122.059998</ele>
        <time>2014-04-13T09:06:54Z</time>
      </trkpt>
      <trkpt lat="49.25573" lon="0.99908">
        <ele>122.300003</ele>
        <time>2014-04-13T09:06:57Z</time>
      </trkpt>
      <trkpt lat="49.25555" lon="0.9991">
        <ele>123.080002</ele>
        <time>2014-04-13T09:07:01Z</time>
      </trkpt>
      <trkpt lat="49.2554" lon="0.999">
        <ele>123.739998</ele>
        <time>2014-04-13T09:07:04Z</time>
      </trkpt>
      <trkpt lat="49.2552" lon="0.99893">
        <ele>124.315002</ele>
        <time>2014-04-13T09:07:07Z</time>
      </trkpt>
      <trkpt lat="49.25503" lon="0.99888">
        <ele>124.705002</ele>
        <time>2014-04-13T09:07:10Z</time>
      </trkpt>
      <trkpt lat="49.25488" lon="0.9988">
        <ele>124.969246</ele>
        <time>2014-04-13T09:07:13Z</time>
      </trkpt>
      <trkpt lat="49.25475" lon="0.99868">
        <ele>124.785522</ele>
        <time>2014-04-13T09:07:16Z</time>
      </trkpt>
      <trkpt lat="49.25458" lon="0.99853">
        <ele>124.675957</ele>
        <time>2014-04-13T09:07:19Z</time>
      </trkpt>
      <trkpt lat="49.25445" lon="0.99833">
        <ele>124.834496</ele>
        <time>2014-04-13T09:07:22Z</time>
      </trkpt>
      <trkpt lat="49.25435" lon="0.9981">
        <ele>125</ele>
        <time>2014-04-13T09:07:25Z</time>
      </trkpt>
      <trkpt lat="49.25423" lon="0.9979">
        <ele>125</ele>
        <time>2014-04-13T09:07:28Z</time>
      </trkpt>
      <trkpt lat="49.2541" lon="0.99768">
        <ele>125</ele>
        <time>2014-04-13T09:07:31Z</time>
      </trkpt>
      <trkpt lat="49.25403" lon="0.99748">
        <ele>124.933342</ele>
        <time>2014-04-13T09:07:34Z</time>
      </trkpt>
      <trkpt lat="49.25393" lon="0.9973">
        <ele>124.399132</ele>
        <time>2014-04-13T09:07:37Z</time>
      </trkpt>
      <trkpt lat="49.25395" lon="0.99703">
        <ele>124.120377</ele>
        <time>2014-04-13T09:07:41Z</time>
      </trkpt>
      <trkpt lat="49.25395" lon="0.99678">
        <ele>123.967064</ele>
        <time>2014-04-13T09:07:44Z</time>
      </trkpt>
      <trkpt lat="49.25398" lon="0.99653">
        <ele>124.500603</ele>
        <time>2014-04-13T09:07:47Z</time>
      </trkpt>
      <trkpt lat="49.25405" lon="0.99628">
        <ele>125.053314</ele>
        <time>2014-04-13T09:07:50Z</time>
      </trkpt>
      <trkpt lat="49.2541" lon="0.99603">
        <ele>125.370064</ele>
        <time>2014-04-13T09:07:53Z</time>
      </trkpt>
      <trkpt lat="49.25415" lon="0.99578">
        <ele>125.661407</ele>
        <time>2014-04-13T09:07:56Z</time>
      </trkpt>
      <trkpt lat="49.25418" lon="0.99555">
        <ele>125.922729</ele>
        <time>2014-04-13T09:07:59Z</time>
      </trkpt>
      <trkpt lat="49.2542" lon="0.99528">
        <ele>126.099998</ele>
        <time>2014-04-13T09:08:03Z</time>
      </trkpt>
      <trkpt lat="49.25423" lon="0.99503">
        <ele>126.220001</ele>
        <time>2014-04-13T09:08:06Z</time>
      </trkpt>
      <trkpt lat="49.25423" lon="0.9948">
        <ele>126.239998</ele>
        <time>2014-04-13T09:08:09Z</time>
      </trkpt>
      <trkpt lat="49.2542" lon="0.9945">
        <ele>126.139999</ele>
        <time>2014-04-13T09:08:12Z</time>
      </trkpt>
      <trkpt lat="49.25418" lon="0.99423">
        <ele>126.040001</ele>
        <time>2014-04-13T09:08:15Z</time>
      </trkpt>
      <trkpt lat="49.25415" lon="0.99395">
        <ele>125.940002</ele>
        <time>2014-04-13T09:08:18Z</time>
      </trkpt>
      <trkpt lat="49.25418" lon="0.99368">
        <ele>126.07</ele>
        <time>2014-04-13T09:08:21Z</time>
      </trkpt>
      <trkpt lat="49.25418" lon="0.9934">
        <ele>126.080002</ele>
        <time>2014-04-13T09:08:24Z</time>
      </trkpt>
      <trkpt lat="49.2542" lon="0.99313">
        <ele>126.209999</ele>
        <time>2014-04-13T09:08:27Z</time>
      </trkpt>
      <trkpt lat="49.2542" lon="0.99288">
        <ele>126.220001</ele>
        <time>2014-04-13T09:08:30Z</time>
      </trkpt>
      <trkpt lat="49.2542" lon="0.9926">
        <ele>126.230003</ele>
        <time>2014-04-13T09:08:33Z</time>
      </trkpt>
      <trkpt lat="49.2542" lon="0.99233">
        <ele>126.25</ele>
        <time>2014-04-13T09:08:36Z</time>
      </trkpt>
      <trkpt lat="49.2542" lon="0.99205">
        <ele>126.260002</ele>
        <time>2014-04-13T09:08:39Z</time>
      </trkpt>
      <trkpt lat="49.2542" lon="0.9918">
        <ele>125.924377</ele>
        <time>2014-04-13T09:08:42Z</time>
      </trkpt>
      <trkpt lat="49.25403" lon="0.99183">
        <ele>125.174377</ele>
        <time>2014-04-13T09:08:47Z</time>
      </trkpt>
      <trkpt lat="49.25385" lon="0.9919">
        <ele>124.092781</ele>
        <time>2014-04-13T09:08:50Z</time>
      </trkpt>
      <trkpt lat="49.25368" lon="0.99195">
        <ele>122.256706</ele>
        <time>2014-04-13T09:08:53Z</time>
      </trkpt>
      <trkpt lat="49.2535" lon="0.992">
        <ele>120.36895</ele>
        <time>2014-04-13T09:08:56Z</time>
      </trkpt>
      <trkpt lat="49.2533" lon="0.9921">
        <ele>118.521332</ele>
        <time>2014-04-13T09:08:59Z</time>
      </trkpt>
      <trkpt lat="49.2532" lon="0.9923">
        <ele>117.806999</ele>
        <time>2014-04-13T09:09:01Z</time>
      </trkpt>
      <trkpt lat="49.25308" lon="0.99263">
        <ele>117.180168</ele>
        <time>2014-04-13T09:09:04Z</time>
      </trkpt>
      <trkpt lat="49.25298" lon="0.9928">
        <ele>117.669907</ele>
        <time>2014-04-13T09:09:07Z</time>
      </trkpt>
      <trkpt lat="49.2528" lon="0.99285">
        <ele>120.583466</ele>
        <time>2014-04-13T09:09:10Z</time>
      </trkpt>
      <trkpt lat="49.25263" lon="0.99295">
        <ele>123.321648</ele>
        <time>2014-04-13T09:09:14Z</time>
      </trkpt>
      <trkpt lat="49.2525" lon="0.99313">
        <ele>124.793602</ele>
        <time>2014-04-13T09:09:18Z</time>
      </trkpt>
      <trkpt lat="49.25235" lon="0.99328">
        <ele>126.783188</ele>
        <time>2014-04-13T09:09:22Z</time>
      </trkpt>
      <trkpt lat="49.25223" lon="0.9934">
        <ele>128.597992</ele>
        <time>2014-04-13T09:09:26Z</time>
      </trkpt>
      <trkpt lat="49.2521" lon="0.9935">
        <ele>130.254456</ele>
        <time>2014-04-13T09:09:29Z</time>
      </trkpt>
      <trkpt lat="49.25193" lon="0.9936">
        <ele>131.958603</ele>
        <time>2014-04-13T09:09:34Z</time>
      </trkpt>
      <trkpt lat="49.2518" lon="0.9937">
        <ele>133.253128</ele>
        <time>2014-04-13T09:09:39Z</time>
      </trkpt>
      <trkpt lat="49.25165" lon="0.99378">
        <ele>134.694153</ele>
        <time>2014-04-13T09:09:45Z</time>
      </trkpt>
      <trkpt lat="49.25148" lon="0.99388">
        <ele>135.181656</ele>
        <time>2014-04-13T09:09:53Z</time>
      </trkpt>
      <trkpt lat="49.25133" lon="0.99395">
        <ele>135.689667</ele>
        <time>2014-04-13T09:09:57Z</time>
      </trkpt>
      <trkpt lat="49.25118" lon="0.99398">
        <ele>135.550003</ele>
        <time>2014-04-13T09:10:02Z</time>
      </trkpt>
      <trkpt lat="49.25095" lon="0.99403">
        <ele>134.050003</ele>
        <time>2014-04-13T09:10:07Z</time>
      </trkpt>
      <trkpt lat="49.2508" lon="0.99403">
        <ele>133.044998</ele>
        <time>2014-04-13T09:10:10Z</time>
      </trkpt>
      <trkpt lat="49.25065" lon="0.994">
        <ele>130.903595</ele>
        <time>2014-04-13T09:10:13Z</time>
      </trkpt>
      <trkpt lat="49.2505" lon="0.99388">
        <ele>128.49794</ele>
        <time>2014-04-13T09:10:17Z</time>
      </trkpt>
      <trkpt lat="49.25038" lon="0.99403">
        <ele>126.956161</ele>
        <time>2014-04-13T09:10:21Z</time>
      </trkpt>
      <trkpt lat="49.2503" lon="0.99423">
        <ele>126.278122</ele>
        <time>2014-04-13T09:10:24Z</time>
      </trkpt>
      <trkpt lat="49.2502" lon="0.99445">
        <ele>125.449379</ele>
        <time>2014-04-13T09:10:27Z</time>
      </trkpt>
      <trkpt lat="49.25008" lon="0.99478">
        <ele>124.535629</ele>
        <time>2014-04-13T09:10:31Z</time>
      </trkpt>
      <trkpt lat="49.25" lon="0.99498">
        <ele>123.89592</ele>
        <time>2014-04-13T09:10:34Z</time>
      </trkpt>
      <trkpt lat="49.2499" lon="0.99513">
        <ele>122.500053</ele>
        <time>2014-04-13T09:10:38Z</time>
      </trkpt>
      <trkpt lat="49.24975" lon="0.99528">
        <ele>119.225418</ele>
        <time>2014-04-13T09:10:43Z</time>
      </trkpt>
      <trkpt lat="49.24963" lon="0.99538">
        <ele>116.634254</ele>
        <time>2014-04-13T09:10:45Z</time>
      </trkpt>
      <trkpt lat="49.24948" lon="0.99553">
        <ele>113.913383</ele>
        <time>2014-04-13T09:10:48Z</time>
      </trkpt>
      <trkpt lat="49.24935" lon="0.99568">
        <ele>111.031876</ele>
        <time>2014-04-13T09:10:51Z</time>
      </trkpt>
      <trkpt lat="49.2492" lon="0.99588">
        <ele>107.46875</ele>
        <time>2014-04-13T09:10:54Z</time>
      </trkpt>
      <trkpt lat="49.24913" lon="0.99605">
        <ele>106.016251</ele>
        <time>2014-04-13T09:10:56Z</time>
      </trkpt>
      <trkpt lat="49.24905" lon="0.99625">
        <ele>104.670624</ele>
        <time>2014-04-13T09:10:59Z</time>
      </trkpt>
      <trkpt lat="49.24893" lon="0.99645">
        <ele>101.885323</ele>
        <time>2014-04-13T09:11:03Z</time>
      </trkpt>
      <trkpt lat="49.24883" lon="0.9966">
        <ele>99.74247</ele>
        <time>2014-04-13T09:11:08Z</time>
      </trkpt>
      <trkpt lat="49.24868" lon="0.99683">
        <ele>96.673515</ele>
        <time>2014-04-13T09:11:15Z</time>
      </trkpt>
      <trkpt lat="49.24855" lon="0.99708">
        <ele>94.951248</ele>
        <time>2014-04-13T09:11:20Z</time>
      </trkpt>
      <trkpt lat="49.24845" lon="0.99728">
        <ele>93.801262</ele>
        <time>2014-04-13T09:11:24Z</time>
      </trkpt>
      <trkpt lat="49.24833" lon="0.99748">
        <ele>91.248688</ele>
        <time>2014-04-13T09:11:28Z</time>
      </trkpt>
      <trkpt lat="49.24815" lon="0.9978">
        <ele>87.107925</ele>
        <time>2014-04-13T09:11:32Z</time>
      </trkpt>
      <trkpt lat="49.2478" lon="0.99848">
        <ele>84.558815</ele>
        <time>2014-04-13T09:11:38Z</time>
      </trkpt>
      <trkpt lat="49.24765" lon="0.99868">
        <ele>82.56456</ele>
        <time>2014-04-13T09:11:40Z</time>
      </trkpt>
      <trkpt lat="49.24743" lon="0.99895">
        <ele>79.438499</ele>
        <time>2014-04-13T09:11:43Z</time>
      </trkpt>
      <trkpt lat="49.24723" lon="0.99923">
        <ele>75.983559</ele>
        <time>2014-04-13T09:11:46Z</time>
      </trkpt>
      <trkpt lat="49.24708" lon="0.99955">
        <ele>75.150238</ele>
        <time>2014-04-13T09:11:49Z</time>
      </trkpt>
      <trkpt lat="49.24698" lon="0.9998">
        <ele>74.44574</ele>
        <time>2014-04-13T09:11:53Z</time>
      </trkpt>
      <trkpt lat="49.2471" lon="0.99993">
        <ele>75.80114</ele>
        <time>2014-04-13T09:12:18Z</time>
      </trkpt>
      <trkpt lat="49.24725" lon="0.99995">
        <ele>77.371452</ele>
        <time>2014-04-13T09:12:37Z</time>
      </trkpt>
      <trkpt lat="49.24735" lon="1.0001">
        <ele>80.199623</ele>
        <time>2014-04-13T09:13:07Z</time>
      </trkpt>
      <trkpt lat="49.2475" lon="1.00018">
        <ele>84.279427</ele>
        <time>2014-04-13T09:13:12Z</time>
      </trkpt>
      <trkpt lat="49.24768" lon="1.00025">
        <ele>88.901566</ele>
        <time>2014-04-13T09:13:19Z</time>
      </trkpt>
      <trkpt lat="49.2478" lon="1.00035">
        <ele>91.980003</ele>
        <time>2014-04-13T09:13:24Z</time>
      </trkpt>
      <trkpt lat="49.2479" lon="1.00053">
        <ele>94.145004</ele>
        <time>2014-04-13T09:13:30Z</time>
      </trkpt>
      <trkpt lat="49.24793" lon="1.00078">
        <ele>93.908752</ele>
        <time>2014-04-13T09:13:39Z</time>
      </trkpt>
      <trkpt lat="49.24798" lon="1.00098">
        <ele>94.532501</ele>
        <time>2014-04-13T09:13:46Z</time>
      </trkpt>
      <trkpt lat="49.24805" lon="1.00115">
        <ele>95.731873</ele>
        <time>2014-04-13T09:13:51Z</time>
      </trkpt>
      <trkpt lat="49.2481" lon="1.00135">
        <ele>96.0625</ele>
        <time>2014-04-13T09:13:55Z</time>
      </trkpt>
      <trkpt lat="49.24818" lon="1.00158">
        <ele>96.830627</ele>
        <time>2014-04-13T09:14:00Z</time>
      </trkpt>
      <trkpt lat="49.2482" lon="1.00185">
        <ele>96.247452</ele>
        <time>2014-04-13T09:14:05Z</time>
      </trkpt>
      <trkpt lat="49.2482" lon="1.0021">
        <ele>95.418343</ele>
        <time>2014-04-13T09:14:09Z</time>
      </trkpt>
      <trkpt lat="49.24823" lon="1.00235">
        <ele>95.286201</ele>
        <time>2014-04-13T09:14:13Z</time>
      </trkpt>
      <trkpt lat="49.24828" lon="1.0027">
        <ele>95.848747</ele>
        <time>2014-04-13T09:14:18Z</time>
      </trkpt>
      <trkpt lat="49.24833" lon="1.00308">
        <ele>96.500626</ele>
        <time>2014-04-13T09:14:25Z</time>
      </trkpt>
      <trkpt lat="49.24835" lon="1.00338">
        <ele>96.364998</ele>
        <time>2014-04-13T09:15:38Z</time>
      </trkpt>
      <trkpt lat="49.2485" lon="1.00335">
        <ele>100.446251</ele>
        <time>2014-04-13T09:18:40Z</time>
      </trkpt>
      <trkpt lat="49.24858" lon="1.00355">
        <ele>101.777504</ele>
        <time>2014-04-13T09:25:11Z</time>
      </trkpt>
      <trkpt lat="49.2486" lon="1.0038">
        <ele>101.647499</ele>
        <time>2014-04-13T09:25:17Z</time>
      </trkpt>
      <trkpt lat="49.24865" lon="1.004">
        <ele>102.101875</ele>
        <time>2014-04-13T09:25:21Z</time>
      </trkpt>
      <trkpt lat="49.24875" lon="1.0045">
        <ele>102.596092</ele>
        <time>2014-04-13T09:25:30Z</time>
      </trkpt>
      <trkpt lat="49.24883" lon="1.0048">
        <ele>104.29528</ele>
        <time>2014-04-13T09:25:35Z</time>
      </trkpt>
      <trkpt lat="49.24888" lon="1.00505">
        <ele>105.501823</ele>
        <time>2014-04-13T09:25:39Z</time>
      </trkpt>
      <trkpt lat="49.24893" lon="1.00538">
        <ele>106.942848</ele>
        <time>2014-04-13T09:25:44Z</time>
      </trkpt>
      <trkpt lat="49.24898" lon="1.0056">
        <ele>108.49865</ele>
        <time>2014-04-13T09:25:47Z</time>
      </trkpt>
      <trkpt lat="49.24903" lon="1.00588">
        <ele>110.00209</ele>
        <time>2014-04-13T09:25:51Z</time>
      </trkpt>
      <trkpt lat="49.24905" lon="1.00613">
        <ele>110.991249</ele>
        <time>2014-04-13T09:25:55Z</time>
      </trkpt>
      <trkpt lat="49.24908" lon="1.00635">
        <ele>111.970001</ele>
        <time>2014-04-13T09:25:59Z</time>
      </trkpt>
      <trkpt lat="49.24908" lon="1.0066">
        <ele>112.275162</ele>
        <time>2014-04-13T09:26:03Z</time>
      </trkpt>
      <trkpt lat="49.24905" lon="1.00683">
        <ele>111.891747</ele>
        <time>2014-04-13T09:26:07Z</time>
      </trkpt>
      <trkpt lat="49.2491" lon="1.0071">
        <ele>113.661964</ele>
        <time>2014-04-13T09:29:19Z</time>
      </trkpt>
      <trkpt lat="49.2491" lon="1.00735">
        <ele>113.93544</ele>
        <time>2014-04-13T09:29:22Z</time>
      </trkpt>
      <trkpt lat="49.24913" lon="1.00763">
        <ele>114.527908</ele>
        <time>2014-04-13T09:29:25Z</time>
      </trkpt>
      <trkpt lat="49.24918" lon="1.00788">
        <ele>115.073875</ele>
        <time>2014-04-13T09:29:28Z</time>
      </trkpt>
      <trkpt lat="49.2492" lon="1.0081">
        <ele>115.251846</ele>
        <time>2014-04-13T09:29:32Z</time>
      </trkpt>
      <trkpt lat="49.24918" lon="1.00833">
        <ele>115.513184</ele>
        <time>2014-04-13T09:29:57Z</time>
      </trkpt>
      <trkpt lat="49.2491" lon="1.00858">
        <ele>115.214478</ele>
        <time>2014-04-13T09:30:01Z</time>
      </trkpt>
      <trkpt lat="49.24893" lon="1.00913">
        <ele>114.866478</ele>
        <time>2014-04-13T09:30:10Z</time>
      </trkpt>
      <trkpt lat="49.24885" lon="1.00935">
        <ele>115.691727</ele>
        <time>2014-04-13T09:30:15Z</time>
      </trkpt>
      <trkpt lat="49.24875" lon="1.00955">
        <ele>115.894699</ele>
        <time>2014-04-13T09:30:19Z</time>
      </trkpt>
      <trkpt lat="49.24868" lon="1.00973">
        <ele>115.468437</ele>
        <time>2014-04-13T09:30:22Z</time>
      </trkpt>
      <trkpt lat="49.24858" lon="1.00988">
        <ele>114.826027</ele>
        <time>2014-04-13T09:30:25Z</time>
      </trkpt>
      <trkpt lat="49.2484" lon="1.01018">
        <ele>114.730904</ele>
        <time>2014-04-13T09:30:31Z</time>
      </trkpt>
      <trkpt lat="49.2483" lon="1.01033">
        <ele>114.858948</ele>
        <time>2014-04-13T09:30:34Z</time>
      </trkpt>
      <trkpt lat="49.24818" lon="1.01058">
        <ele>114.719597</ele>
        <time>2014-04-13T09:30:38Z</time>
      </trkpt>
      <trkpt lat="49.24808" lon="1.01075">
        <ele>115.113892</ele>
        <time>2014-04-13T09:30:41Z</time>
      </trkpt>
      <trkpt lat="49.2478" lon="1.01125">
        <ele>116.535843</ele>
        <time>2014-04-13T09:30:50Z</time>
      </trkpt>
      <trkpt lat="49.24765" lon="1.01153">
        <ele>116.575218</ele>
        <time>2014-04-13T09:30:55Z</time>
      </trkpt>
      <trkpt lat="49.2475" lon="1.01175">
        <ele>116.977814</ele>
        <time>2014-04-13T09:30:59Z</time>
      </trkpt>
      <trkpt lat="49.24733" lon="1.01203">
        <ele>118.713242</ele>
        <time>2014-04-13T09:31:04Z</time>
      </trkpt>
      <trkpt lat="49.24713" lon="1.01238">
        <ele>119.023254</ele>
        <time>2014-04-13T09:31:11Z</time>
      </trkpt>
      <trkpt lat="49.247" lon="1.01255">
        <ele>119.677498</ele>
        <time>2014-04-13T09:31:15Z</time>
      </trkpt>
      <trkpt lat="49.2469" lon="1.0127">
        <ele>120.163704</ele>
        <time>2014-04-13T09:31:18Z</time>
      </trkpt>
      <trkpt lat="49.24678" lon="1.01283">
        <ele>120.574158</ele>
        <time>2014-04-13T09:31:21Z</time>
      </trkpt>
      <trkpt lat="49.24643" lon="1.0132">
        <ele>120.098999</ele>
        <time>2014-04-13T09:31:28Z</time>
      </trkpt>
      <trkpt lat="49.24628" lon="1.01338">
        <ele>120.541512</ele>
        <time>2014-04-13T09:31:32Z</time>
      </trkpt>
      <trkpt lat="49.24613" lon="1.0134">
        <ele>120.607094</ele>
        <time>2014-04-13T09:31:35Z</time>
      </trkpt>
      <trkpt lat="49.24598" lon="1.01343">
        <ele>120.258812</ele>
        <time>2014-04-13T09:31:38Z</time>
      </trkpt>
      <trkpt lat="49.2457" lon="1.01348">
        <ele>119.331497</ele>
        <time>2014-04-13T09:31:42Z</time>
      </trkpt>
      <trkpt lat="49.24548" lon="1.0135">
        <ele>117.569626</ele>
        <time>2014-04-13T09:31:45Z</time>
      </trkpt>
      <trkpt lat="49.24523" lon="1.01358">
        <ele>115.919128</ele>
        <time>2014-04-13T09:31:48Z</time>
      </trkpt>
      <trkpt lat="49.24505" lon="1.01368">
        <ele>113.681427</ele>
        <time>2014-04-13T09:31:50Z</time>
      </trkpt>
      <trkpt lat="49.24483" lon="1.01393">
        <ele>112.448189</ele>
        <time>2014-04-13T09:31:53Z</time>
      </trkpt>
      <trkpt lat="49.24468" lon="1.01423">
        <ele>113.952499</ele>
        <time>2014-04-13T09:31:56Z</time>
      </trkpt>
      <trkpt lat="49.24443" lon="1.01463">
        <ele>112.414246</ele>
        <time>2014-04-13T09:32:00Z</time>
      </trkpt>
      <trkpt lat="49.2439" lon="1.01543">
        <ele>106.966637</ele>
        <time>2014-04-13T09:32:08Z</time>
      </trkpt>
      <trkpt lat="49.24353" lon="1.01603">
        <ele>103.556725</ele>
        <time>2014-04-13T09:32:14Z</time>
      </trkpt>
      <trkpt lat="49.2431" lon="1.01665">
        <ele>97.152458</ele>
        <time>2014-04-13T09:32:20Z</time>
      </trkpt>
      <trkpt lat="49.24298" lon="1.01698">
        <ele>95.097282</ele>
        <time>2014-04-13T09:32:23Z</time>
      </trkpt>
      <trkpt lat="49.24293" lon="1.01723">
        <ele>94.106247</ele>
        <time>2014-04-13T09:32:25Z</time>
      </trkpt>
      <trkpt lat="49.24288" lon="1.01765">
        <ele>93.216248</ele>
        <time>2014-04-13T09:32:28Z</time>
      </trkpt>
      <trkpt lat="49.24278" lon="1.01803">
        <ele>88.8918</ele>
        <time>2014-04-13T09:32:31Z</time>
      </trkpt>
      <trkpt lat="49.24268" lon="1.01828">
        <ele>84.279221</ele>
        <time>2014-04-13T09:32:34Z</time>
      </trkpt>
      <trkpt lat="49.2426" lon="1.01865">
        <ele>79.43</ele>
        <time>2014-04-13T09:32:36Z</time>
      </trkpt>
      <trkpt lat="49.24258" lon="1.01905">
        <ele>75.93</ele>
        <time>2014-04-13T09:32:39Z</time>
      </trkpt>
      <trkpt lat="49.24258" lon="1.01948">
        <ele>73.055748</ele>
        <time>2014-04-13T09:32:42Z</time>
      </trkpt>
      <trkpt lat="49.24263" lon="1.01975">
        <ele>72.678955</ele>
        <time>2014-04-13T09:32:44Z</time>
      </trkpt>
      <trkpt lat="49.2427" lon="1.02013">
        <ele>69.788628</ele>
        <time>2014-04-13T09:32:47Z</time>
      </trkpt>
      <trkpt lat="49.24285" lon="1.02043">
        <ele>67.765236</ele>
        <time>2014-04-13T09:32:50Z</time>
      </trkpt>
      <trkpt lat="49.24298" lon="1.02055">
        <ele>67.602509</ele>
        <time>2014-04-13T09:32:53Z</time>
      </trkpt>
      <trkpt lat="49.24313" lon="1.0206">
        <ele>68.287033</ele>
        <time>2014-04-13T09:32:55Z</time>
      </trkpt>
      <trkpt lat="49.24343" lon="1.0207">
        <ele>68.785126</ele>
        <time>2014-04-13T09:32:59Z</time>
      </trkpt>
      <trkpt lat="49.24375" lon="1.02085">
        <ele>65.241791</ele>
        <time>2014-04-13T09:33:03Z</time>
      </trkpt>
      <trkpt lat="49.24398" lon="1.0209">
        <ele>63.441277</ele>
        <time>2014-04-13T09:33:06Z</time>
      </trkpt>
      <trkpt lat="49.2441" lon="1.021">
        <ele>60.815289</ele>
        <time>2014-04-13T09:33:23Z</time>
      </trkpt>
      <trkpt lat="49.24428" lon="1.02105">
        <ele>59.452499</ele>
        <time>2014-04-13T09:37:58Z</time>
      </trkpt>
      <trkpt lat="49.2441" lon="1.0211">
        <ele>58.529705</ele>
        <time>2014-04-13T09:38:03Z</time>
      </trkpt>
      <trkpt lat="49.24393" lon="1.02108">
        <ele>59.285957</ele>
        <time>2014-04-13T09:38:06Z</time>
      </trkpt>
      <trkpt lat="49.24375" lon="1.02108">
        <ele>60.01709</ele>
        <time>2014-04-13T09:38:09Z</time>
      </trkpt>
      <trkpt lat="49.24335" lon="1.02105">
        <ele>61.723358</ele>
        <time>2014-04-13T09:38:15Z</time>
      </trkpt>
      <trkpt lat="49.2431" lon="1.0211">
        <ele>60.709782</ele>
        <time>2014-04-13T09:38:22Z</time>
      </trkpt>
      <trkpt lat="49.24308" lon="1.02145">
        <ele>65.066917</ele>
        <time>2014-04-13T09:38:39Z</time>
      </trkpt>
      <trkpt lat="49.24295" lon="1.0216">
        <ele>68.012703</ele>
        <time>2014-04-13T09:38:44Z</time>
      </trkpt>
      <trkpt lat="49.24278" lon="1.02168">
        <ele>69.860298</ele>
        <time>2014-04-13T09:38:48Z</time>
      </trkpt>
      <trkpt lat="49.24263" lon="1.0217">
        <ele>70.786629</ele>
        <time>2014-04-13T09:38:52Z</time>
      </trkpt>
      <trkpt lat="49.24248" lon="1.02168">
        <ele>70.85247</ele>
        <time>2014-04-13T09:38:56Z</time>
      </trkpt>
      <trkpt lat="49.24233" lon="1.02168">
        <ele>71.532547</ele>
        <time>2014-04-13T09:39:00Z</time>
      </trkpt>
      <trkpt lat="49.24218" lon="1.02168">
        <ele>72.216385</ele>
        <time>2014-04-13T09:39:05Z</time>
      </trkpt>
      <trkpt lat="49.24203" lon="1.0217">
        <ele>73.364998</ele>
        <time>2014-04-13T09:39:13Z</time>
      </trkpt>
      <trkpt lat="49.24188" lon="1.02175">
        <ele>74.786201</ele>
        <time>2014-04-13T09:39:18Z</time>
      </trkpt>
      <trkpt lat="49.2417" lon="1.02183">
        <ele>76.370155</ele>
        <time>2014-04-13T09:39:25Z</time>
      </trkpt>
      <trkpt lat="49.24158" lon="1.02193">
        <ele>78.797379</ele>
        <time>2014-04-13T09:39:30Z</time>
      </trkpt>
      <trkpt lat="49.24145" lon="1.0221">
        <ele>81.750252</ele>
        <time>2014-04-13T09:39:38Z</time>
      </trkpt>
      <trkpt lat="49.24133" lon="1.02228">
        <ele>83.698006</ele>
        <time>2014-04-13T09:39:43Z</time>
      </trkpt>
      <trkpt lat="49.2412" lon="1.0224">
        <ele>84.697716</ele>
        <time>2014-04-13T09:39:48Z</time>
      </trkpt>
      <trkpt lat="49.24113" lon="1.02223">
        <ele>85.071449</ele>
        <time>2014-04-13T09:39:55Z</time>
      </trkpt>
      <trkpt lat="49.241" lon="1.0221">
        <ele>86.630363</ele>
        <time>2014-04-13T09:40:01Z</time>
      </trkpt>
      <trkpt lat="49.24088" lon="1.022">
        <ele>88.710457</ele>
        <time>2014-04-13T09:40:07Z</time>
      </trkpt>
      <trkpt lat="49.24075" lon="1.02188">
        <ele>91.056999</ele>
        <time>2014-04-13T09:40:13Z</time>
      </trkpt>
      <trkpt lat="49.24058" lon="1.02173">
        <ele>92.135468</ele>
        <time>2014-04-13T09:40:21Z</time>
      </trkpt>
      <trkpt lat="49.24038" lon="1.02153">
        <ele>94.592972</ele>
        <time>2014-04-13T09:40:29Z</time>
      </trkpt>
      <trkpt lat="49.24023" lon="1.02143">
        <ele>96.462753</ele>
        <time>2014-04-13T09:40:34Z</time>
      </trkpt>
      <trkpt lat="49.2401" lon="1.02133">
        <ele>98.377464</ele>
        <time>2014-04-13T09:40:39Z</time>
      </trkpt>
      <trkpt lat="49.23998" lon="1.02123">
        <ele>100.753754</ele>
        <time>2014-04-13T09:40:44Z</time>
      </trkpt>
      <trkpt lat="49.23985" lon="1.02113">
        <ele>102.40181</ele>
        <time>2014-04-13T09:40:50Z</time>
      </trkpt>
      <trkpt lat="49.2397" lon="1.021">
        <ele>104.238487</ele>
        <time>2014-04-13T09:40:55Z</time>
      </trkpt>
      <trkpt lat="49.23958" lon="1.02085">
        <ele>106.449448</ele>
        <time>2014-04-13T09:41:00Z</time>
      </trkpt>
      <trkpt lat="49.2394" lon="1.0207">
        <ele>109.831886</ele>
        <time>2014-04-13T09:41:06Z</time>
      </trkpt>
      <trkpt lat="49.23928" lon="1.02058">
        <ele>112.623695</ele>
        <time>2014-04-13T09:41:10Z</time>
      </trkpt>
      <trkpt lat="49.23913" lon="1.02043">
        <ele>114.598122</ele>
        <time>2014-04-13T09:41:15Z</time>
      </trkpt>
      <trkpt lat="49.239" lon="1.02028">
        <ele>116.280617</ele>
        <time>2014-04-13T09:41:20Z</time>
      </trkpt>
      <trkpt lat="49.23885" lon="1.02018">
        <ele>118.088478</ele>
        <time>2014-04-13T09:41:25Z</time>
      </trkpt>
      <trkpt lat="49.2387" lon="1.02008">
        <ele>119.904297</ele>
        <time>2014-04-13T09:41:31Z</time>
      </trkpt>
      <trkpt lat="49.23855" lon="1.02003">
        <ele>121.851456</ele>
        <time>2014-04-13T09:41:35Z</time>
      </trkpt>
      <trkpt lat="49.2384" lon="1.01995">
        <ele>123.648048</ele>
        <time>2014-04-13T09:41:40Z</time>
      </trkpt>
      <trkpt lat="49.23828" lon="1.01985">
        <ele>125.144997</ele>
        <time>2014-04-13T09:41:45Z</time>
      </trkpt>
      <trkpt lat="49.23815" lon="1.01975">
        <ele>126.544998</ele>
        <time>2014-04-13T09:41:48Z</time>
      </trkpt>
      <trkpt lat="49.238" lon="1.01968">
        <ele>127.859253</ele>
        <time>2014-04-13T09:41:52Z</time>
      </trkpt>
      <trkpt lat="49.2377" lon="1.01953">
        <ele>129.789627</ele>
        <time>2014-04-13T09:42:01Z</time>
      </trkpt>
      <trkpt lat="49.23755" lon="1.01945">
        <ele>130.66333</ele>
        <time>2014-04-13T09:42:06Z</time>
      </trkpt>
      <trkpt lat="49.23743" lon="1.0193">
        <ele>131.550781</ele>
        <time>2014-04-13T09:42:13Z</time>
      </trkpt>
      <trkpt lat="49.23718" lon="1.019">
        <ele>133.057495</ele>
        <time>2014-04-13T09:42:23Z</time>
      </trkpt>
      <trkpt lat="49.23705" lon="1.01888">
        <ele>132.623032</ele>
        <time>2014-04-13T09:42:27Z</time>
      </trkpt>
      <trkpt lat="49.23695" lon="1.0187">
        <ele>132.795227</ele>
        <time>2014-04-13T09:42:32Z</time>
      </trkpt>
      <trkpt lat="49.23683" lon="1.01855">
        <ele>132.993515</ele>
        <time>2014-04-13T09:42:37Z</time>
      </trkpt>
      <trkpt lat="49.23668" lon="1.01843">
        <ele>132.700653</ele>
        <time>2014-04-13T09:42:41Z</time>
      </trkpt>
      <trkpt lat="49.23655" lon="1.01828">
        <ele>132.319244</ele>
        <time>2014-04-13T09:42:46Z</time>
      </trkpt>
      <trkpt lat="49.23643" lon="1.01818">
        <ele>131.884811</ele>
        <time>2014-04-13T09:42:50Z</time>
      </trkpt>
      <trkpt lat="49.2363" lon="1.01805">
        <ele>131.920944</ele>
        <time>2014-04-13T09:42:55Z</time>
      </trkpt>
      <trkpt lat="49.23618" lon="1.01793">
        <ele>132.281006</ele>
        <time>2014-04-13T09:43:00Z</time>
      </trkpt>
      <trkpt lat="49.23603" lon="1.0178">
        <ele>132.330322</ele>
        <time>2014-04-13T09:43:06Z</time>
      </trkpt>
      <trkpt lat="49.23588" lon="1.0177">
        <ele>132.279587</ele>
        <time>2014-04-13T09:43:11Z</time>
      </trkpt>
      <trkpt lat="49.2357" lon="1.0176">
        <ele>132.335007</ele>
        <time>2014-04-13T09:43:15Z</time>
      </trkpt>
      <trkpt lat="49.23548" lon="1.01745">
        <ele>132.699997</ele>
        <time>2014-04-13T09:43:21Z</time>
      </trkpt>
      <trkpt lat="49.2353" lon="1.01735">
        <ele>132.82048</ele>
        <time>2014-04-13T09:43:26Z</time>
      </trkpt>
      <trkpt lat="49.23505" lon="1.01718">
        <ele>133.191116</ele>
        <time>2014-04-13T09:43:34Z</time>
      </trkpt>
      <trkpt lat="49.2348" lon="1.01703">
        <ele>133.319565</ele>
        <time>2014-04-13T09:43:42Z</time>
      </trkpt>
      <trkpt lat="49.23468" lon="1.01693">
        <ele>133.676804</ele>
        <time>2014-04-13T09:43:47Z</time>
      </trkpt>
      <trkpt lat="49.23453" lon="1.01678">
        <ele>134.466537</ele>
        <time>2014-04-13T09:43:53Z</time>
      </trkpt>
      <trkpt lat="49.23433" lon="1.0166">
        <ele>135.301971</ele>
        <time>2014-04-13T09:43:59Z</time>
      </trkpt>
      <trkpt lat="49.2341" lon="1.0164">
        <ele>135.350632</ele>
        <time>2014-04-13T09:44:06Z</time>
      </trkpt>
      <trkpt lat="49.23398" lon="1.01628">
        <ele>135.361252</ele>
        <time>2014-04-13T09:44:10Z</time>
      </trkpt>
      <trkpt lat="49.23385" lon="1.01613">
        <ele>135.307404</ele>
        <time>2014-04-13T09:44:15Z</time>
      </trkpt>
      <trkpt lat="49.23368" lon="1.01595">
        <ele>135.401657</ele>
        <time>2014-04-13T09:44:20Z</time>
      </trkpt>
      <trkpt lat="49.23348" lon="1.01575">
        <ele>135.361832</ele>
        <time>2014-04-13T09:44:28Z</time>
      </trkpt>
      <trkpt lat="49.23335" lon="1.01565">
        <ele>134.8284</ele>
        <time>2014-04-13T09:44:33Z</time>
      </trkpt>
      <trkpt lat="49.23323" lon="1.01553">
        <ele>134.511505</ele>
        <time>2014-04-13T09:44:38Z</time>
      </trkpt>
      <trkpt lat="49.2331" lon="1.0154">
        <ele>134.297394</ele>
        <time>2014-04-13T09:44:44Z</time>
      </trkpt>
      <trkpt lat="49.23295" lon="1.01535">
        <ele>133.663406</ele>
        <time>2014-04-13T09:44:49Z</time>
      </trkpt>
      <trkpt lat="49.2328" lon="1.01525">
        <ele>133.731873</ele>
        <time>2014-04-13T09:44:56Z</time>
      </trkpt>
      <trkpt lat="49.23268" lon="1.01515">
        <ele>134.071472</ele>
        <time>2014-04-13T09:45:01Z</time>
      </trkpt>
      <trkpt lat="49.23253" lon="1.01505">
        <ele>134.080673</ele>
        <time>2014-04-13T09:45:06Z</time>
      </trkpt>
      <trkpt lat="49.2324" lon="1.01495">
        <ele>134.177216</ele>
        <time>2014-04-13T09:45:10Z</time>
      </trkpt>
      <trkpt lat="49.23228" lon="1.01485">
        <ele>134.425278</ele>
        <time>2014-04-13T09:45:13Z</time>
      </trkpt>
      <trkpt lat="49.23188" lon="1.01453">
        <ele>135.53418</ele>
        <time>2014-04-13T09:45:22Z</time>
      </trkpt>
      <trkpt lat="49.23173" lon="1.01443">
        <ele>135.486572</ele>
        <time>2014-04-13T09:45:25Z</time>
      </trkpt>
      <trkpt lat="49.23158" lon="1.01433">
        <ele>135.518921</ele>
        <time>2014-04-13T09:45:29Z</time>
      </trkpt>
      <trkpt lat="49.23143" lon="1.0142">
        <ele>135.892258</ele>
        <time>2014-04-13T09:45:33Z</time>
      </trkpt>
      <trkpt lat="49.23123" lon="1.01405">
        <ele>136.465088</ele>
        <time>2014-04-13T09:45:38Z</time>
      </trkpt>
      <trkpt lat="49.231" lon="1.01388">
        <ele>137.696457</ele>
        <time>2014-04-13T09:45:45Z</time>
      </trkpt>
      <trkpt lat="49.23083" lon="1.0138">
        <ele>137.897781</ele>
        <time>2014-04-13T09:45:50Z</time>
      </trkpt>
      <trkpt lat="49.23063" lon="1.01375">
        <ele>138.246872</ele>
        <time>2014-04-13T09:45:55Z</time>
      </trkpt>
      <trkpt lat="49.23048" lon="1.0137">
        <ele>138.637497</ele>
        <time>2014-04-13T09:45:59Z</time>
      </trkpt>
      <trkpt lat="49.23033" lon="1.01363">
        <ele>139.26268</ele>
        <time>2014-04-13T09:46:03Z</time>
      </trkpt>
      <trkpt lat="49.2302" lon="1.0135">
        <ele>140.384079</ele>
        <time>2014-04-13T09:46:07Z</time>
      </trkpt>
      <trkpt lat="49.23005" lon="1.01338">
        <ele>141.324753</ele>
        <time>2014-04-13T09:46:12Z</time>
      </trkpt>
      <trkpt lat="49.2299" lon="1.01323">
        <ele>142.125626</ele>
        <time>2014-04-13T09:46:22Z</time>
      </trkpt>
      <trkpt lat="49.22975" lon="1.01318">
        <ele>142.632797</ele>
        <time>2014-04-13T09:46:34Z</time>
      </trkpt>
      <trkpt lat="49.22968" lon="1.01335">
        <ele>142.025421</ele>
        <time>2014-04-13T09:47:33Z</time>
      </trkpt>
      <trkpt lat="49.22953" lon="1.0132">
        <ele>143.017105</ele>
        <time>2014-04-13T09:50:22Z</time>
      </trkpt>
      <trkpt lat="49.2294" lon="1.0131">
        <ele>143.438644</ele>
        <time>2014-04-13T09:50:26Z</time>
      </trkpt>
      <trkpt lat="49.22928" lon="1.013">
        <ele>143.708237</ele>
        <time>2014-04-13T09:50:28Z</time>
      </trkpt>
      <trkpt lat="49.2291" lon="1.01285">
        <ele>144.413437</ele>
        <time>2014-04-13T09:50:32Z</time>
      </trkpt>
      <trkpt lat="49.22895" lon="1.01273">
        <ele>145.225006</ele>
        <time>2014-04-13T09:50:36Z</time>
      </trkpt>
      <trkpt lat="49.2288" lon="1.01263">
        <ele>145.830002</ele>
        <time>2014-04-13T09:50:38Z</time>
      </trkpt>
      <trkpt lat="49.22855" lon="1.01245">
        <ele>146.435989</ele>
        <time>2014-04-13T09:50:44Z</time>
      </trkpt>
      <trkpt lat="49.2284" lon="1.01238">
        <ele>146.673752</ele>
        <time>2014-04-13T09:50:47Z</time>
      </trkpt>
      <trkpt lat="49.22825" lon="1.01233">
        <ele>146.831253</ele>
        <time>2014-04-13T09:50:50Z</time>
      </trkpt>
      <trkpt lat="49.2281" lon="1.01245">
        <ele>146.477493</ele>
        <time>2014-04-13T09:50:54Z</time>
      </trkpt>
      <trkpt lat="49.2281" lon="1.01273">
        <ele>145.51033</ele>
        <time>2014-04-13T09:50:57Z</time>
      </trkpt>
      <trkpt lat="49.22813" lon="1.01378">
        <ele>139.438095</ele>
        <time>2014-04-13T09:51:06Z</time>
      </trkpt>
      <trkpt lat="49.22823" lon="1.01413">
        <ele>136.422501</ele>
        <time>2014-04-13T09:51:09Z</time>
      </trkpt>
      <trkpt lat="49.22838" lon="1.01448">
        <ele>133.194366</ele>
        <time>2014-04-13T09:51:12Z</time>
      </trkpt>
      <trkpt lat="49.22848" lon="1.01468">
        <ele>131.306808</ele>
        <time>2014-04-13T09:51:15Z</time>
      </trkpt>
      <trkpt lat="49.22863" lon="1.015">
        <ele>129.436417</ele>
        <time>2014-04-13T09:51:17Z</time>
      </trkpt>
      <trkpt lat="49.2288" lon="1.01528">
        <ele>127.393204</ele>
        <time>2014-04-13T09:51:20Z</time>
      </trkpt>
      <trkpt lat="49.22905" lon="1.01545">
        <ele>126.045502</ele>
        <time>2014-04-13T09:51:23Z</time>
      </trkpt>
      <trkpt lat="49.22943" lon="1.01573">
        <ele>125.83625</ele>
        <time>2014-04-13T09:51:28Z</time>
      </trkpt>
      <trkpt lat="49.22955" lon="1.01585">
        <ele>126.2314</ele>
        <time>2014-04-13T09:51:30Z</time>
      </trkpt>
      <trkpt lat="49.22983" lon="1.01613">
        <ele>128.603256</ele>
        <time>2014-04-13T09:51:35Z</time>
      </trkpt>
      <trkpt lat="49.23005" lon="1.01635">
        <ele>131.253998</ele>
        <time>2014-04-13T09:51:40Z</time>
      </trkpt>
      <trkpt lat="49.23015" lon="1.01653">
        <ele>133.3983</ele>
        <time>2014-04-13T09:51:43Z</time>
      </trkpt>
      <trkpt lat="49.23025" lon="1.0167">
        <ele>135.516754</ele>
        <time>2014-04-13T09:51:47Z</time>
      </trkpt>
      <trkpt lat="49.23038" lon="1.01683">
        <ele>136.354736</ele>
        <time>2014-04-13T09:51:51Z</time>
      </trkpt>
      <trkpt lat="49.2305" lon="1.01695">
        <ele>136.933746</ele>
        <time>2014-04-13T09:51:57Z</time>
      </trkpt>
      <trkpt lat="49.23055" lon="1.01715">
        <ele>138.482498</ele>
        <time>2014-04-13T09:52:01Z</time>
      </trkpt>
      <trkpt lat="49.23065" lon="1.01743">
        <ele>140.154373</ele>
        <time>2014-04-13T09:52:06Z</time>
      </trkpt>
      <trkpt lat="49.2307" lon="1.0177">
        <ele>141.153748</ele>
        <time>2014-04-13T09:52:11Z</time>
      </trkpt>
      <trkpt lat="49.23078" lon="1.01798">
        <ele>142.044998</ele>
        <time>2014-04-13T09:52:17Z</time>
      </trkpt>
      <trkpt lat="49.23088" lon="1.0184">
        <ele>142.408127</ele>
        <time>2014-04-13T09:52:23Z</time>
      </trkpt>
      <trkpt lat="49.23093" lon="1.01863">
        <ele>142.528122</ele>
        <time>2014-04-13T09:52:26Z</time>
      </trkpt>
      <trkpt lat="49.231" lon="1.0188">
        <ele>142.330002</ele>
        <time>2014-04-13T09:52:29Z</time>
      </trkpt>
      <trkpt lat="49.23105" lon="1.01905">
        <ele>142.119995</ele>
        <time>2014-04-13T09:52:33Z</time>
      </trkpt>
      <trkpt lat="49.2311" lon="1.01925">
        <ele>141.910004</ele>
        <time>2014-04-13T09:52:36Z</time>
      </trkpt>
      <trkpt lat="49.23123" lon="1.01965">
        <ele>141.369995</ele>
        <time>2014-04-13T09:52:42Z</time>
      </trkpt>
      <trkpt lat="49.2313" lon="1.01993">
        <ele>141.050003</ele>
        <time>2014-04-13T09:52:46Z</time>
      </trkpt>
      <trkpt lat="49.2314" lon="1.02033">
        <ele>140.993759</ele>
        <time>2014-04-13T09:52:51Z</time>
      </trkpt>
      <trkpt lat="49.2316" lon="1.0211">
        <ele>141.085388</ele>
        <time>2014-04-13T09:53:01Z</time>
      </trkpt>
      <trkpt lat="49.23165" lon="1.02133">
        <ele>141.158051</ele>
        <time>2014-04-13T09:53:06Z</time>
      </trkpt>
      <trkpt lat="49.23175" lon="1.0215">
        <ele>141.14856</ele>
        <time>2014-04-13T09:53:08Z</time>
      </trkpt>
      <trkpt lat="49.23205" lon="1.02203">
        <ele>141.27562</ele>
        <time>2014-04-13T09:53:16Z</time>
      </trkpt>
      <trkpt lat="49.2322" lon="1.0223">
        <ele>141.080002</ele>
        <time>2014-04-13T09:53:20Z</time>
      </trkpt>
      <trkpt lat="49.23235" lon="1.02238">
        <ele>140.846725</ele>
        <time>2014-04-13T09:53:23Z</time>
      </trkpt>
      <trkpt lat="49.2325" lon="1.0225">
        <ele>140.753494</ele>
        <time>2014-04-13T09:53:26Z</time>
      </trkpt>
      <trkpt lat="49.23265" lon="1.02268">
        <ele>140.850418</ele>
        <time>2014-04-13T09:53:29Z</time>
      </trkpt>
      <trkpt lat="49.23358" lon="1.02365">
        <ele>140.054993</ele>
        <time>2014-04-13T09:53:46Z</time>
      </trkpt>
      <trkpt lat="49.2337" lon="1.02375">
        <ele>139.779999</ele>
        <time>2014-04-13T09:53:48Z</time>
      </trkpt>
      <trkpt lat="49.2339" lon="1.02398">
        <ele>139.339996</ele>
        <time>2014-04-13T09:53:52Z</time>
      </trkpt>
      <trkpt lat="49.23403" lon="1.02408">
        <ele>139.065002</ele>
        <time>2014-04-13T09:53:54Z</time>
      </trkpt>
      <trkpt lat="49.2343" lon="1.0243">
        <ele>139.544998</ele>
        <time>2014-04-13T09:53:59Z</time>
      </trkpt>
      <trkpt lat="49.23448" lon="1.0244">
        <ele>139.929993</ele>
        <time>2014-04-13T09:54:02Z</time>
      </trkpt>
      <trkpt lat="49.23465" lon="1.0245">
        <ele>140.0448</ele>
        <time>2014-04-13T09:54:05Z</time>
      </trkpt>
      <trkpt lat="49.23485" lon="1.0246">
        <ele>140.339157</ele>
        <time>2014-04-13T09:54:09Z</time>
      </trkpt>
      <trkpt lat="49.23508" lon="1.0247">
        <ele>140.493744</ele>
        <time>2014-04-13T09:54:13Z</time>
      </trkpt>
      <trkpt lat="49.23525" lon="1.0247">
        <ele>140.117508</ele>
        <time>2014-04-13T09:54:16Z</time>
      </trkpt>
      <trkpt lat="49.23543" lon="1.02468">
        <ele>139.655807</ele>
        <time>2014-04-13T09:54:19Z</time>
      </trkpt>
      <trkpt lat="49.23573" lon="1.02465">
        <ele>138.708908</ele>
        <time>2014-04-13T09:54:24Z</time>
      </trkpt>
      <trkpt lat="49.23583" lon="1.0249">
        <ele>139.452774</ele>
        <time>2014-04-13T09:54:28Z</time>
      </trkpt>
      <trkpt lat="49.23585" lon="1.02513">
        <ele>140.06311</ele>
        <time>2014-04-13T09:54:31Z</time>
      </trkpt>
      <trkpt lat="49.23595" lon="1.02588">
        <ele>140.931931</ele>
        <time>2014-04-13T09:54:40Z</time>
      </trkpt>
      <trkpt lat="49.23583" lon="1.02608">
        <ele>140.904587</ele>
        <time>2014-04-13T09:54:44Z</time>
      </trkpt>
      <trkpt lat="49.23573" lon="1.02625">
        <ele>140.509369</ele>
        <time>2014-04-13T09:54:47Z</time>
      </trkpt>
      <trkpt lat="49.23578" lon="1.02645">
        <ele>140.321243</ele>
        <time>2014-04-13T09:54:50Z</time>
      </trkpt>
      <trkpt lat="49.2359" lon="1.0267">
        <ele>140.177505</ele>
        <time>2014-04-13T09:54:53Z</time>
      </trkpt>
      <trkpt lat="49.23623" lon="1.02733">
        <ele>138.326065</ele>
        <time>2014-04-13T09:55:01Z</time>
      </trkpt>
      <trkpt lat="49.23623" lon="1.02758">
        <ele>137.419998</ele>
        <time>2014-04-13T09:55:06Z</time>
      </trkpt>
      <trkpt lat="49.2361" lon="1.02775">
        <ele>136.383118</ele>
        <time>2014-04-13T09:55:09Z</time>
      </trkpt>
      <trkpt lat="49.23598" lon="1.02795">
        <ele>135.242493</ele>
        <time>2014-04-13T09:55:12Z</time>
      </trkpt>
      <trkpt lat="49.23573" lon="1.02835">
        <ele>132.729996</ele>
        <time>2014-04-13T09:55:18Z</time>
      </trkpt>
      <trkpt lat="49.23563" lon="1.0285">
        <ele>131.645004</ele>
        <time>2014-04-13T09:55:26Z</time>
      </trkpt>
      <trkpt lat="49.23545" lon="1.02878">
        <ele>129.690811</ele>
        <time>2014-04-13T09:55:32Z</time>
      </trkpt>
      <trkpt lat="49.23538" lon="1.02895">
        <ele>129.38887</ele>
        <time>2014-04-13T09:55:39Z</time>
      </trkpt>
      <trkpt lat="49.2355" lon="1.02908">
        <ele>128.534302</ele>
        <time>2014-04-13T09:55:46Z</time>
      </trkpt>
      <trkpt lat="49.23568" lon="1.02928">
        <ele>128.074768</ele>
        <time>2014-04-13T09:55:53Z</time>
      </trkpt>
      <trkpt lat="49.2358" lon="1.02945">
        <ele>127.476959</ele>
        <time>2014-04-13T09:55:59Z</time>
      </trkpt>
      <trkpt lat="49.23585" lon="1.0297">
        <ele>126.50174</ele>
        <time>2014-04-13T09:56:04Z</time>
      </trkpt>
      <trkpt lat="49.23588" lon="1.02998">
        <ele>125.375648</ele>
        <time>2014-04-13T09:56:07Z</time>
      </trkpt>
      <trkpt lat="49.23593" lon="1.03035">
        <ele>123.48716</ele>
        <time>2014-04-13T09:56:11Z</time>
      </trkpt>
      <trkpt lat="49.23598" lon="1.03065">
        <ele>122.196983</ele>
        <time>2014-04-13T09:56:14Z</time>
      </trkpt>
      <trkpt lat="49.236" lon="1.03088">
        <ele>121.165359</ele>
        <time>2014-04-13T09:56:16Z</time>
      </trkpt>
      <trkpt lat="49.2361" lon="1.0313">
        <ele>120.093811</ele>
        <time>2014-04-13T09:56:20Z</time>
      </trkpt>
      <trkpt lat="49.23618" lon="1.03173">
        <ele>118.742325</ele>
        <time>2014-04-13T09:56:24Z</time>
      </trkpt>
      <trkpt lat="49.23623" lon="1.03208">
        <ele>117.794502</ele>
        <time>2014-04-13T09:56:27Z</time>
      </trkpt>
      <trkpt lat="49.23625" lon="1.03233">
        <ele>116.976852</ele>
        <time>2014-04-13T09:56:30Z</time>
      </trkpt>
      <trkpt lat="49.23635" lon="1.03305">
        <ele>113.861511</ele>
        <time>2014-04-13T09:56:35Z</time>
      </trkpt>
      <trkpt lat="49.23645" lon="1.03365">
        <ele>112.279747</ele>
        <time>2014-04-13T09:56:40Z</time>
      </trkpt>
      <trkpt lat="49.2365" lon="1.03403">
        <ele>111.48423</ele>
        <time>2014-04-13T09:56:43Z</time>
      </trkpt>
      <trkpt lat="49.23655" lon="1.0344">
        <ele>110.735718</ele>
        <time>2014-04-13T09:56:46Z</time>
      </trkpt>
      <trkpt lat="49.23658" lon="1.03465">
        <ele>110.157669</ele>
        <time>2014-04-13T09:56:48Z</time>
      </trkpt>
      <trkpt lat="49.2366" lon="1.03505">
        <ele>108.751251</ele>
        <time>2014-04-13T09:56:51Z</time>
      </trkpt>
      <trkpt lat="49.2366" lon="1.0354">
        <ele>107.36261</ele>
        <time>2014-04-13T09:56:54Z</time>
      </trkpt>
      <trkpt lat="49.23658" lon="1.03575">
        <ele>105.315125</ele>
        <time>2014-04-13T09:56:57Z</time>
      </trkpt>
      <trkpt lat="49.23648" lon="1.03688">
        <ele>102.340149</ele>
        <time>2014-04-13T09:57:06Z</time>
      </trkpt>
      <trkpt lat="49.23648" lon="1.03728">
        <ele>101.157356</ele>
        <time>2014-04-13T09:57:09Z</time>
      </trkpt>
      <trkpt lat="49.23648" lon="1.0379">
        <ele>98.453423</ele>
        <time>2014-04-13T09:57:14Z</time>
      </trkpt>
      <trkpt lat="49.23645" lon="1.03818">
        <ele>96.860001</ele>
        <time>2014-04-13T09:57:16Z</time>
      </trkpt>
      <trkpt lat="49.23643" lon="1.0386">
        <ele>95.911034</ele>
        <time>2014-04-13T09:57:19Z</time>
      </trkpt>
      <trkpt lat="49.23633" lon="1.03903">
        <ele>95.450432</ele>
        <time>2014-04-13T09:57:22Z</time>
      </trkpt>
      <trkpt lat="49.2361" lon="1.04005">
        <ele>90.905876</ele>
        <time>2014-04-13T09:57:30Z</time>
      </trkpt>
      <trkpt lat="49.2361" lon="1.0403">
        <ele>90.355446</ele>
        <time>2014-04-13T09:57:32Z</time>
      </trkpt>
      <trkpt lat="49.23615" lon="1.04063">
        <ele>89.888634</ele>
        <time>2014-04-13T09:57:35Z</time>
      </trkpt>
      <trkpt lat="49.23623" lon="1.04093">
        <ele>89.986435</ele>
        <time>2014-04-13T09:57:38Z</time>
      </trkpt>
      <trkpt lat="49.23633" lon="1.04115">
        <ele>89.413422</ele>
        <time>2014-04-13T09:57:41Z</time>
      </trkpt>
      <trkpt lat="49.2364" lon="1.04135">
        <ele>89.048447</ele>
        <time>2014-04-13T09:57:46Z</time>
      </trkpt>
      <trkpt lat="49.23648" lon="1.04158">
        <ele>88.700409</ele>
        <time>2014-04-13T09:57:54Z</time>
      </trkpt>
      <trkpt lat="49.23655" lon="1.0418">
        <ele>88.986893</ele>
        <time>2014-04-13T09:57:59Z</time>
      </trkpt>
      <trkpt lat="49.23663" lon="1.042">
        <ele>88.956863</ele>
        <time>2014-04-13T09:58:04Z</time>
      </trkpt>
      <trkpt lat="49.2367" lon="1.0422">
        <ele>88.800591</ele>
        <time>2014-04-13T09:58:10Z</time>
      </trkpt>
      <trkpt lat="49.2368" lon="1.04238">
        <ele>88.529747</ele>
        <time>2014-04-13T09:58:15Z</time>
      </trkpt>
      <trkpt lat="49.23685" lon="1.0426">
        <ele>88.53672</ele>
        <time>2014-04-13T09:58:22Z</time>
      </trkpt>
      <trkpt lat="49.237" lon="1.0427">
        <ele>89.929848</ele>
        <time>2014-04-13T09:58:29Z</time>
      </trkpt>
      <trkpt lat="49.23713" lon="1.04255">
        <ele>87.324371</ele>
        <time>2014-04-13T09:58:33Z</time>
      </trkpt>
      <trkpt lat="49.2373" lon="1.04255">
        <ele>86.582001</ele>
        <time>2014-04-13T09:58:37Z</time>
      </trkpt>
      <trkpt lat="49.23745" lon="1.04263">
        <ele>86.730598</ele>
        <time>2014-04-13T09:58:42Z</time>
      </trkpt>
      <trkpt lat="49.2377" lon="1.04275">
        <ele>87.025314</ele>
        <time>2014-04-13T09:58:47Z</time>
      </trkpt>
      <trkpt lat="49.23785" lon="1.04285">
        <ele>86.747978</ele>
        <time>2014-04-13T09:58:51Z</time>
      </trkpt>
      <trkpt lat="49.23795" lon="1.043">
        <ele>87.130875</ele>
        <time>2014-04-13T09:58:54Z</time>
      </trkpt>
      <trkpt lat="49.23803" lon="1.04318">
        <ele>87.296249</ele>
        <time>2014-04-13T09:58:58Z</time>
      </trkpt>
      <trkpt lat="49.2381" lon="1.04335">
        <ele>87.587341</ele>
        <time>2014-04-13T09:59:05Z</time>
      </trkpt>
      <trkpt lat="49.23798" lon="1.04348">
        <ele>89.777214</ele>
        <time>2014-04-13T09:59:34Z</time>
      </trkpt>
      <trkpt lat="49.23783" lon="1.04355">
        <ele>92.337921</ele>
        <time>2014-04-13T10:00:10Z</time>
      </trkpt>
      <trkpt lat="49.23773" lon="1.0437">
        <ele>95.701439</ele>
        <time>2014-04-13T10:00:16Z</time>
      </trkpt>
      <trkpt lat="49.2376" lon="1.0438">
        <ele>99.362007</ele>
        <time>2014-04-13T10:00:23Z</time>
      </trkpt>
      <trkpt lat="49.2375" lon="1.04395">
        <ele>103.234352</ele>
        <time>2014-04-13T10:00:31Z</time>
      </trkpt>
      <trkpt lat="49.23738" lon="1.04413">
        <ele>107.293335</ele>
        <time>2014-04-13T10:00:40Z</time>
      </trkpt>
      <trkpt lat="49.2373" lon="1.0443">
        <ele>110.148041</ele>
        <time>2014-04-13T10:00:57Z</time>
      </trkpt>
      <trkpt lat="49.23718" lon="1.0444">
        <ele>113.179695</ele>
        <time>2014-04-13T10:02:02Z</time>
      </trkpt>
      <trkpt lat="49.23708" lon="1.04455">
        <ele>116.360291</ele>
        <time>2014-04-13T10:02:44Z</time>
      </trkpt>
      <trkpt lat="49.23695" lon="1.04465">
        <ele>118.944534</ele>
        <time>2014-04-13T10:03:08Z</time>
      </trkpt>
      <trkpt lat="49.23683" lon="1.04483">
        <ele>119.769409</ele>
        <time>2014-04-13T10:03:14Z</time>
      </trkpt>
      <trkpt lat="49.23668" lon="1.04488">
        <ele>119.504845</ele>
        <time>2014-04-13T10:03:19Z</time>
      </trkpt>
      <trkpt lat="49.23658" lon="1.04503">
        <ele>121.240173</ele>
        <time>2014-04-13T10:03:24Z</time>
      </trkpt>
      <trkpt lat="49.23655" lon="1.04525">
        <ele>124.688934</ele>
        <time>2014-04-13T10:03:29Z</time>
      </trkpt>
      <trkpt lat="49.2365" lon="1.04545">
        <ele>126.466652</ele>
        <time>2014-04-13T10:03:34Z</time>
      </trkpt>
      <trkpt lat="49.23638" lon="1.0456">
        <ele>126.075485</ele>
        <time>2014-04-13T10:03:39Z</time>
      </trkpt>
      <trkpt lat="49.23628" lon="1.04575">
        <ele>126.223701</ele>
        <time>2014-04-13T10:03:43Z</time>
      </trkpt>
      <trkpt lat="49.2361" lon="1.04595">
        <ele>126.309441</ele>
        <time>2014-04-13T10:03:48Z</time>
      </trkpt>
      <trkpt lat="49.23598" lon="1.04613">
        <ele>126.138359</ele>
        <time>2014-04-13T10:03:52Z</time>
      </trkpt>
      <trkpt lat="49.23585" lon="1.04628">
        <ele>125.779175</ele>
        <time>2014-04-13T10:03:55Z</time>
      </trkpt>
      <trkpt lat="49.23568" lon="1.04653">
        <ele>126.393227</ele>
        <time>2014-04-13T10:04:00Z</time>
      </trkpt>
      <trkpt lat="49.23553" lon="1.0467">
        <ele>127.719086</ele>
        <time>2014-04-13T10:04:03Z</time>
      </trkpt>
      <trkpt lat="49.23538" lon="1.0469">
        <ele>128.298141</ele>
        <time>2014-04-13T10:04:06Z</time>
      </trkpt>
      <trkpt lat="49.2353" lon="1.04708">
        <ele>128.775116</ele>
        <time>2014-04-13T10:04:09Z</time>
      </trkpt>
      <trkpt lat="49.23518" lon="1.04723">
        <ele>129.567856</ele>
        <time>2014-04-13T10:04:13Z</time>
      </trkpt>
      <trkpt lat="49.23508" lon="1.04738">
        <ele>130.679718</ele>
        <time>2014-04-13T10:04:16Z</time>
      </trkpt>
      <trkpt lat="49.23495" lon="1.04753">
        <ele>131.649796</ele>
        <time>2014-04-13T10:04:20Z</time>
      </trkpt>
      <trkpt lat="49.23475" lon="1.04778">
        <ele>133.049942</ele>
        <time>2014-04-13T10:04:26Z</time>
      </trkpt>
      <trkpt lat="49.23463" lon="1.04795">
        <ele>133.837982</ele>
        <time>2014-04-13T10:04:29Z</time>
      </trkpt>
      <trkpt lat="49.23423" lon="1.04853">
        <ele>135.397461</ele>
        <time>2014-04-13T10:04:39Z</time>
      </trkpt>
      <trkpt lat="49.2341" lon="1.04868">
        <ele>135.794647</ele>
        <time>2014-04-13T10:04:43Z</time>
      </trkpt>
      <trkpt lat="49.234" lon="1.04883">
        <ele>136.145004</ele>
        <time>2014-04-13T10:04:48Z</time>
      </trkpt>
      <trkpt lat="49.23395" lon="1.04905">
        <ele>135.852509</ele>
        <time>2014-04-13T10:07:05Z</time>
      </trkpt>
      <trkpt lat="49.23383" lon="1.0492">
        <ele>136.149994</ele>
        <time>2014-04-13T10:07:10Z</time>
      </trkpt>
      <trkpt lat="49.2337" lon="1.0493">
        <ele>136.427505</ele>
        <time>2014-04-13T10:07:15Z</time>
      </trkpt>
      <trkpt lat="49.23363" lon="1.04948">
        <ele>136.262497</ele>
        <time>2014-04-13T10:10:08Z</time>
      </trkpt>
      <trkpt lat="49.23353" lon="1.04963">
        <ele>136.282501</ele>
        <time>2014-04-13T10:10:12Z</time>
      </trkpt>
      <trkpt lat="49.23338" lon="1.0498">
        <ele>136.463745</ele>
        <time>2014-04-13T10:10:16Z</time>
      </trkpt>
      <trkpt lat="49.23328" lon="1.04995">
        <ele>136.483749</ele>
        <time>2014-04-13T10:10:19Z</time>
      </trkpt>
      <trkpt lat="49.23298" lon="1.05038">
        <ele>136.599014</ele>
        <time>2014-04-13T10:10:28Z</time>
      </trkpt>
      <trkpt lat="49.23285" lon="1.05053">
        <ele>136.579926</ele>
        <time>2014-04-13T10:10:31Z</time>
      </trkpt>
      <trkpt lat="49.23273" lon="1.05065">
        <ele>136.732681</ele>
        <time>2014-04-13T10:10:34Z</time>
      </trkpt>
      <trkpt lat="49.23258" lon="1.0508">
        <ele>137.054382</ele>
        <time>2014-04-13T10:10:37Z</time>
      </trkpt>
      <trkpt lat="49.2324" lon="1.0509">
        <ele>137.358749</ele>
        <time>2014-04-13T10:10:41Z</time>
      </trkpt>
      <trkpt lat="49.23228" lon="1.051">
        <ele>137.520081</ele>
        <time>2014-04-13T10:10:44Z</time>
      </trkpt>
      <trkpt lat="49.23218" lon="1.05118">
        <ele>137.716614</ele>
        <time>2014-04-13T10:10:48Z</time>
      </trkpt>
      <trkpt lat="49.2321" lon="1.05138">
        <ele>138.009995</ele>
        <time>2014-04-13T10:10:51Z</time>
      </trkpt>
      <trkpt lat="49.232" lon="1.05158">
        <ele>138.470001</ele>
        <time>2014-04-13T10:10:54Z</time>
      </trkpt>
      <trkpt lat="49.2319" lon="1.05175">
        <ele>138.733124</ele>
        <time>2014-04-13T10:10:57Z</time>
      </trkpt>
      <trkpt lat="49.23163" lon="1.0522">
        <ele>139.251877</ele>
        <time>2014-04-13T10:11:05Z</time>
      </trkpt>
      <trkpt lat="49.23153" lon="1.05235">
        <ele>139.276794</ele>
        <time>2014-04-13T10:11:08Z</time>
      </trkpt>
      <trkpt lat="49.23138" lon="1.05253">
        <ele>139.539383</ele>
        <time>2014-04-13T10:11:12Z</time>
      </trkpt>
      <trkpt lat="49.23125" lon="1.0527">
        <ele>139.891632</ele>
        <time>2014-04-13T10:11:15Z</time>
      </trkpt>
      <trkpt lat="49.231" lon="1.05303">
        <ele>140.482498</ele>
        <time>2014-04-13T10:11:21Z</time>
      </trkpt>
      <trkpt lat="49.23088" lon="1.0532">
        <ele>140.511871</ele>
        <time>2014-04-13T10:11:24Z</time>
      </trkpt>
      <trkpt lat="49.22963" lon="1.05493">
        <ele>141.307007</ele>
        <time>2014-04-13T10:11:55Z</time>
      </trkpt>
      <trkpt lat="49.22945" lon="1.05518">
        <ele>141.720001</ele>
        <time>2014-04-13T10:12:00Z</time>
      </trkpt>
      <trkpt lat="49.22925" lon="1.0554">
        <ele>140.766251</ele>
        <time>2014-04-13T10:12:05Z</time>
      </trkpt>
      <trkpt lat="49.22915" lon="1.05555">
        <ele>140.121246</ele>
        <time>2014-04-13T10:12:09Z</time>
      </trkpt>
      <trkpt lat="49.22903" lon="1.0557">
        <ele>139.479996</ele>
        <time>2014-04-13T10:14:57Z</time>
      </trkpt>
      <trkpt lat="49.22885" lon="1.05578">
        <ele>138.825623</ele>
        <time>2014-04-13T10:15:01Z</time>
      </trkpt>
      <trkpt lat="49.2284" lon="1.05598">
        <ele>134.854996</ele>
        <time>2014-04-13T10:15:08Z</time>
      </trkpt>
      <trkpt lat="49.22815" lon="1.05608">
        <ele>131.520004</ele>
        <time>2014-04-13T10:15:11Z</time>
      </trkpt>
      <trkpt lat="49.22788" lon="1.05613">
        <ele>128.908066</ele>
        <time>2014-04-13T10:15:14Z</time>
      </trkpt>
      <trkpt lat="49.22758" lon="1.05618">
        <ele>127.725998</ele>
        <time>2014-04-13T10:15:17Z</time>
      </trkpt>
      <trkpt lat="49.2274" lon="1.05628">
        <ele>128.919174</ele>
        <time>2014-04-13T10:15:19Z</time>
      </trkpt>
      <trkpt lat="49.22725" lon="1.0564">
        <ele>130.397751</ele>
        <time>2014-04-13T10:15:21Z</time>
      </trkpt>
      <trkpt lat="49.22713" lon="1.05655">
        <ele>132.016006</ele>
        <time>2014-04-13T10:15:24Z</time>
      </trkpt>
      <trkpt lat="49.22703" lon="1.05673">
        <ele>133.448532</ele>
        <time>2014-04-13T10:15:27Z</time>
      </trkpt>
      <trkpt lat="49.22683" lon="1.057">
        <ele>135.557343</ele>
        <time>2014-04-13T10:15:33Z</time>
      </trkpt>
      <trkpt lat="49.22673" lon="1.05715">
        <ele>136.301422</ele>
        <time>2014-04-13T10:15:36Z</time>
      </trkpt>
      <trkpt lat="49.22655" lon="1.05738">
        <ele>137.308121</ele>
        <time>2014-04-13T10:15:41Z</time>
      </trkpt>
      <trkpt lat="49.2264" lon="1.0576">
        <ele>138.00563</ele>
        <time>2014-04-13T10:15:46Z</time>
      </trkpt>
      <trkpt lat="49.2256" lon="1.05883">
        <ele>139.757507</ele>
        <time>2014-04-13T10:16:07Z</time>
      </trkpt>
      <trkpt lat="49.2255" lon="1.05903">
        <ele>139.641251</ele>
        <time>2014-04-13T10:16:10Z</time>
      </trkpt>
      <trkpt lat="49.22543" lon="1.0592">
        <ele>139.41684</ele>
        <time>2014-04-13T10:16:13Z</time>
      </trkpt>
      <trkpt lat="49.22528" lon="1.05955">
        <ele>138.634171</ele>
        <time>2014-04-13T10:16:18Z</time>
      </trkpt>
      <trkpt lat="49.2252" lon="1.05978">
        <ele>137.918594</ele>
        <time>2014-04-13T10:16:21Z</time>
      </trkpt>
      <trkpt lat="49.2251" lon="1.06005">
        <ele>136.775635</ele>
        <time>2014-04-13T10:16:24Z</time>
      </trkpt>
      <trkpt lat="49.22498" lon="1.06035">
        <ele>134.121994</ele>
        <time>2014-04-13T10:16:27Z</time>
      </trkpt>
      <trkpt lat="49.2248" lon="1.06065">
        <ele>131.918198</ele>
        <time>2014-04-13T10:16:30Z</time>
      </trkpt>
      <trkpt lat="49.22465" lon="1.06093">
        <ele>132.952347</ele>
        <time>2014-04-13T10:16:33Z</time>
      </trkpt>
      <trkpt lat="49.22458" lon="1.0611">
        <ele>134.179245</ele>
        <time>2014-04-13T10:16:35Z</time>
      </trkpt>
      <trkpt lat="49.22448" lon="1.06138">
        <ele>136.233658</ele>
        <time>2014-04-13T10:16:39Z</time>
      </trkpt>
      <trkpt lat="49.22443" lon="1.06158">
        <ele>137.531631</ele>
        <time>2014-04-13T10:16:42Z</time>
      </trkpt>
      <trkpt lat="49.22445" lon="1.06183">
        <ele>138.803619</ele>
        <time>2014-04-13T10:16:46Z</time>
      </trkpt>
      <trkpt lat="49.22448" lon="1.06208">
        <ele>140.112183</ele>
        <time>2014-04-13T10:16:50Z</time>
      </trkpt>
      <trkpt lat="49.22455" lon="1.06225">
        <ele>140.506668</ele>
        <time>2014-04-13T10:16:54Z</time>
      </trkpt>
      <trkpt lat="49.22465" lon="1.0624">
        <ele>140.66481</ele>
        <time>2014-04-13T10:16:57Z</time>
      </trkpt>
      <trkpt lat="49.22485" lon="1.0627">
        <ele>141.133194</ele>
        <time>2014-04-13T10:17:02Z</time>
      </trkpt>
      <trkpt lat="49.22495" lon="1.06288">
        <ele>141.317261</ele>
        <time>2014-04-13T10:17:05Z</time>
      </trkpt>
      <trkpt lat="49.22505" lon="1.06308">
        <ele>141.433044</ele>
        <time>2014-04-13T10:17:08Z</time>
      </trkpt>
      <trkpt lat="49.22513" lon="1.06328">
        <ele>141.69339</ele>
        <time>2014-04-13T10:17:11Z</time>
      </trkpt>
      <trkpt lat="49.2252" lon="1.0635">
        <ele>142.071869</ele>
        <time>2014-04-13T10:17:14Z</time>
      </trkpt>
      <trkpt lat="49.22528" lon="1.0637">
        <ele>142.366257</ele>
        <time>2014-04-13T10:17:17Z</time>
      </trkpt>
      <trkpt lat="49.22533" lon="1.0639">
        <ele>142.659378</ele>
        <time>2014-04-13T10:17:21Z</time>
      </trkpt>
      <trkpt lat="49.22543" lon="1.06405">
        <ele>142.881882</ele>
        <time>2014-04-13T10:17:24Z</time>
      </trkpt>
      <trkpt lat="49.22555" lon="1.06423">
        <ele>142.748749</ele>
        <time>2014-04-13T10:17:27Z</time>
      </trkpt>
      <trkpt lat="49.22565" lon="1.06443">
        <ele>142.233124</ele>
        <time>2014-04-13T10:17:30Z</time>
      </trkpt>
      <trkpt lat="49.22578" lon="1.06463">
        <ele>141.667496</ele>
        <time>2014-04-13T10:17:33Z</time>
      </trkpt>
      <trkpt lat="49.22588" lon="1.06485">
        <ele>141.179993</ele>
        <time>2014-04-13T10:17:36Z</time>
      </trkpt>
      <trkpt lat="49.22595" lon="1.06503">
        <ele>141.020004</ele>
        <time>2014-04-13T10:17:38Z</time>
      </trkpt>
      <trkpt lat="49.22605" lon="1.06533">
        <ele>140.117386</ele>
        <time>2014-04-13T10:17:42Z</time>
      </trkpt>
      <trkpt lat="49.22615" lon="1.06563">
        <ele>138.925003</ele>
        <time>2014-04-13T10:17:46Z</time>
      </trkpt>
      <trkpt lat="49.22623" lon="1.06588">
        <ele>138.125</ele>
        <time>2014-04-13T10:17:49Z</time>
      </trkpt>
      <trkpt lat="49.22625" lon="1.06615">
        <ele>137.875</ele>
        <time>2014-04-13T10:17:52Z</time>
      </trkpt>
      <trkpt lat="49.22633" lon="1.0664">
        <ele>135.788101</ele>
        <time>2014-04-13T10:17:55Z</time>
      </trkpt>
      <trkpt lat="49.22653" lon="1.06653">
        <ele>133.339828</ele>
        <time>2014-04-13T10:17:58Z</time>
      </trkpt>
      <trkpt lat="49.22675" lon="1.0667">
        <ele>131.653687</ele>
        <time>2014-04-13T10:18:01Z</time>
      </trkpt>
      <trkpt lat="49.2269" lon="1.06685">
        <ele>130.984055</ele>
        <time>2014-04-13T10:18:03Z</time>
      </trkpt>
      <trkpt lat="49.2271" lon="1.06713">
        <ele>130.783249</ele>
        <time>2014-04-13T10:18:06Z</time>
      </trkpt>
      <trkpt lat="49.22718" lon="1.06733">
        <ele>130.751816</ele>
        <time>2014-04-13T10:18:08Z</time>
      </trkpt>
      <trkpt lat="49.22735" lon="1.06775">
        <ele>131</ele>
        <time>2014-04-13T10:18:13Z</time>
      </trkpt>
      <trkpt lat="49.2274" lon="1.06803">
        <ele>131</ele>
        <time>2014-04-13T10:18:16Z</time>
      </trkpt>
      <trkpt lat="49.2274" lon="1.06828">
        <ele>130.903229</ele>
        <time>2014-04-13T10:18:19Z</time>
      </trkpt>
      <trkpt lat="49.22743" lon="1.0685">
        <ele>130.640884</ele>
        <time>2014-04-13T10:18:22Z</time>
      </trkpt>
      <trkpt lat="49.22745" lon="1.06875">
        <ele>130.383224</ele>
        <time>2014-04-13T10:18:25Z</time>
      </trkpt>
      <trkpt lat="49.2275" lon="1.06923">
        <ele>130.00209</ele>
        <time>2014-04-13T10:18:31Z</time>
      </trkpt>
      <trkpt lat="49.2275" lon="1.06945">
        <ele>129.774734</ele>
        <time>2014-04-13T10:20:02Z</time>
      </trkpt>
      <trkpt lat="49.22768" lon="1.06953">
        <ele>130.445847</ele>
        <time>2014-04-13T10:20:07Z</time>
      </trkpt>
      <trkpt lat="49.22783" lon="1.06955">
        <ele>131</ele>
        <time>2014-04-13T10:20:10Z</time>
      </trkpt>
      <trkpt lat="49.22798" lon="1.06955">
        <ele>131</ele>
        <time>2014-04-13T10:20:13Z</time>
      </trkpt>
      <trkpt lat="49.22813" lon="1.06948">
        <ele>131</ele>
        <time>2014-04-13T10:20:16Z</time>
      </trkpt>
      <trkpt lat="49.22828" lon="1.0694">
        <ele>130.988068</ele>
        <time>2014-04-13T10:20:19Z</time>
      </trkpt>
      <trkpt lat="49.22843" lon="1.0693">
        <ele>130.860825</ele>
        <time>2014-04-13T10:20:22Z</time>
      </trkpt>
      <trkpt lat="49.22858" lon="1.0692">
        <ele>130.639313</ele>
        <time>2014-04-13T10:20:25Z</time>
      </trkpt>
      <trkpt lat="49.22875" lon="1.0691">
        <ele>130.31955</ele>
        <time>2014-04-13T10:20:29Z</time>
      </trkpt>
      <trkpt lat="49.2289" lon="1.06908">
        <ele>130.180878</ele>
        <time>2014-04-13T10:20:32Z</time>
      </trkpt>
      <trkpt lat="49.22905" lon="1.06905">
        <ele>130.064774</ele>
        <time>2014-04-13T10:20:35Z</time>
      </trkpt>
      <trkpt lat="49.22923" lon="1.0691">
        <ele>129.891495</ele>
        <time>2014-04-13T10:20:39Z</time>
      </trkpt>
      <trkpt lat="49.2294" lon="1.0692">
        <ele>129.735855</ele>
        <time>2014-04-13T10:20:43Z</time>
      </trkpt>
      <trkpt lat="49.22968" lon="1.06935">
        <ele>129.76062</ele>
        <time>2014-04-13T10:20:48Z</time>
      </trkpt>
      <trkpt lat="49.22985" lon="1.06945">
        <ele>129.913132</ele>
        <time>2014-04-13T10:20:51Z</time>
      </trkpt>
      <trkpt lat="49.23003" lon="1.0695">
        <ele>129.991882</ele>
        <time>2014-04-13T10:20:54Z</time>
      </trkpt>
      <trkpt lat="49.2302" lon="1.06955">
        <ele>129.688873</ele>
        <time>2014-04-13T10:20:58Z</time>
      </trkpt>
      <trkpt lat="49.23035" lon="1.06958">
        <ele>129.405792</ele>
        <time>2014-04-13T10:21:03Z</time>
      </trkpt>
      <trkpt lat="49.2305" lon="1.0695">
        <ele>129.008698</ele>
        <time>2014-04-13T10:21:08Z</time>
      </trkpt>
      <trkpt lat="49.2307" lon="1.06932">
        <ele>128.891098</ele>
      </trkpt>
      <trkpt lat="49.23109" lon="1.06924">
        <ele>128.655624</ele>
      </trkpt>
      <trkpt lat="49.23131" lon="1.06916">
        <ele>128.548752</ele>
      </trkpt>
      <trkpt lat="49.23173" lon="1.06887">
        <ele>128.128754</ele>
      </trkpt>
      <trkpt lat="49.23225" lon="1.06858">
        <ele>127.728127</ele>
      </trkpt>
      <trkpt lat="49.2337" lon="1.06798">
        <ele>125.896049</ele>
      </trkpt>
      <trkpt lat="49.23475" lon="1.06758">
        <ele>123.848129</ele>
      </trkpt>
      <trkpt lat="49.23557" lon="1.06724">
        <ele>121.62825</ele>
      </trkpt>
      <trkpt lat="49.23602" lon="1.06706">
        <ele>123.136307</ele>
      </trkpt>
      <trkpt lat="49.23623" lon="1.067">
        <ele>124.130386</ele>
      </trkpt>
      <trkpt lat="49.23646" lon="1.0669">
        <ele>125.096252</ele>
      </trkpt>
      <trkpt lat="49.23696" lon="1.06662">
        <ele>126.470627</ele>
      </trkpt>
      <trkpt lat="49.23737" lon="1.06635">
        <ele>126.666252</ele>
      </trkpt>
      <trkpt lat="49.23788" lon="1.06604">
        <ele>126.117256</ele>
      </trkpt>
      <trkpt lat="49.23809" lon="1.0659">
        <ele>126.000664</ele>
      </trkpt>
      <trkpt lat="49.23834" lon="1.06577">
        <ele>125.916809</ele>
      </trkpt>
      <trkpt lat="49.23858" lon="1.06562">
        <ele>125.60125</ele>
      </trkpt>
      <trkpt lat="49.23875" lon="1.06549">
        <ele>125.248444</ele>
      </trkpt>
      <trkpt lat="49.23925" lon="1.0652">
        <ele>124.447906</ele>
      </trkpt>
      <trkpt lat="49.23935" lon="1.06515">
        <ele>124.205498</ele>
      </trkpt>
      <trkpt lat="49.23935" lon="1.06516">
        <ele>124.190094</ele>
      </trkpt>
      <trkpt lat="49.23954" lon="1.06505">
        <ele>124.117706</ele>
      </trkpt>
      <trkpt lat="49.23971" lon="1.06497">
        <ele>124.103226</ele>
      </trkpt>
      <trkpt lat="49.23995" lon="1.06475">
        <ele>124</ele>
      </trkpt>
      <trkpt lat="49.24048" lon="1.06416">
        <ele>124.420624</ele>
      </trkpt>
      <trkpt lat="49.24069" lon="1.06385">
        <ele>124.861877</ele>
      </trkpt>
      <trkpt lat="49.24118" lon="1.063">
        <ele>125.940605</ele>
      </trkpt>
      <trkpt lat="49.24162" lon="1.06229">
        <ele>126</ele>
      </trkpt>
      <trkpt lat="49.24204" lon="1.06171">
        <ele>125.937653</ele>
      </trkpt>
      <trkpt lat="49.24224" lon="1.06141">
        <ele>126</ele>
      </trkpt>
      <trkpt lat="49.24244" lon="1.06115">
        <ele>126</ele>
      </trkpt>
      <trkpt lat="49.24266" lon="1.06094">
        <ele>126</ele>
      </trkpt>
      <trkpt lat="49.24285" lon="1.06084">
        <ele>126</ele>
      </trkpt>
      <trkpt lat="49.24302" lon="1.06078">
        <ele>125.98259</ele>
      </trkpt>
      <trkpt lat="49.24358" lon="1.06065">
        <ele>125.577499</ele>
      </trkpt>
      <trkpt lat="49.24377" lon="1.06059">
        <ele>125.5</ele>
      </trkpt>
      <trkpt lat="49.24419" lon="1.06041">
        <ele>125.256874</ele>
      </trkpt>
      <trkpt lat="49.24512" lon="1.0601">
        <ele>125.801102</ele>
      </trkpt>
      <trkpt lat="49.24569" lon="1.05986">
        <ele>125.975128</ele>
      </trkpt>
      <trkpt lat="49.24606" lon="1.05973">
        <ele>125.420578</ele>
      </trkpt>
      <trkpt lat="49.24629" lon="1.05962">
        <ele>125.111717</ele>
      </trkpt>
      <trkpt lat="49.24676" lon="1.05941">
        <ele>124.889999</ele>
      </trkpt>
      <trkpt lat="49.24728" lon="1.05923">
        <ele>124.046249</ele>
      </trkpt>
      <trkpt lat="49.24793" lon="1.05898">
        <ele>123.243752</ele>
      </trkpt>
      <trkpt lat="49.24841" lon="1.05883">
        <ele>121.984688</ele>
      </trkpt>
      <trkpt lat="49.24896" lon="1.05858">
        <ele>120.417374</ele>
      </trkpt>
      <trkpt lat="49.2494" lon="1.05835">
        <ele>119.176468</ele>
      </trkpt>
      <trkpt lat="49.2498" lon="1.05823">
        <ele>118.394989</ele>
      </trkpt>
      <trkpt lat="49.25027" lon="1.05804">
        <ele>117.064835</ele>
      </trkpt>
      <trkpt lat="49.25087" lon="1.05785">
        <ele>115.057625</ele>
      </trkpt>
      <trkpt lat="49.25127" lon="1.05771">
        <ele>112.622734</ele>
      </trkpt>
      <trkpt lat="49.25195" lon="1.05741">
        <ele>107.977501</ele>
      </trkpt>
      <trkpt lat="49.25309" lon="1.05695">
        <ele>102.327499</ele>
      </trkpt>
      <trkpt lat="49.2535" lon="1.05682">
        <ele>101.847923</ele>
      </trkpt>
      <trkpt lat="49.25399" lon="1.0566">
        <ele>101.225502</ele>
      </trkpt>
      <trkpt lat="49.25478" lon="1.0563">
        <ele>103.511559</ele>
      </trkpt>
      <trkpt lat="49.25531" lon="1.05608">
        <ele>103.223976</ele>
      </trkpt>
      <trkpt lat="49.25559" lon="1.056">
        <ele>102.608398</ele>
      </trkpt>
      <trkpt lat="49.25598" lon="1.05587">
        <ele>101.927483</ele>
      </trkpt>
      <trkpt lat="49.25617" lon="1.05577">
        <ele>100.874023</ele>
      </trkpt>
      <trkpt lat="49.25641" lon="1.05568">
        <ele>99.60817</ele>
      </trkpt>
      <trkpt lat="49.25655" lon="1.05546">
        <ele>98.82737</ele>
      </trkpt>
      <trkpt lat="49.25686" lon="1.05506">
        <ele>97.59951</ele>
      </trkpt>
      <trkpt lat="49.25714" lon="1.05474">
        <ele>94.40564</ele>
      </trkpt>
      <trkpt lat="49.25724" lon="1.05465">
        <ele>93.493988</ele>
      </trkpt>
      <trkpt lat="49.25743" lon="1.05457">
        <ele>92.227417</ele>
      </trkpt>
      <trkpt lat="49.25774" lon="1.0545">
        <ele>90.397499</ele>
      </trkpt>
      <trkpt lat="49.25797" lon="1.05448">
        <ele>88.358124</ele>
      </trkpt>
      <trkpt lat="49.25811" lon="1.05444">
        <ele>86.909378</ele>
      </trkpt>
      <trkpt lat="49.25833" lon="1.05429">
        <ele>83.666481</ele>
      </trkpt>
      <trkpt lat="49.25845" lon="1.05422">
        <ele>81.780266</ele>
      </trkpt>
      <trkpt lat="49.2586" lon="1.05416">
        <ele>79.724983</ele>
      </trkpt>
      <trkpt lat="49.25871" lon="1.05413">
        <ele>78.218063</ele>
      </trkpt>
      <trkpt lat="49.25888" lon="1.05411">
        <ele>75.707726</ele>
      </trkpt>
      <trkpt lat="49.25916" lon="1.05411">
        <ele>72.403702</ele>
      </trkpt>
      <trkpt lat="49.25933" lon="1.05409">
        <ele>70.638603</ele>
      </trkpt>
      <trkpt lat="49.25945" lon="1.05406">
        <ele>69.216042</ele>
      </trkpt>
      <trkpt lat="49.2597" lon="1.05396">
        <ele>65.673691</ele>
      </trkpt>
      <trkpt lat="49.25989" lon="1.05394">
        <ele>63.359962</ele>
      </trkpt>
      <trkpt lat="49.2601" lon="1.05394">
        <ele>61.244686</ele>
      </trkpt>
      <trkpt lat="49.26045" lon="1.05397">
        <ele>57.65387</ele>
      </trkpt>
      <trkpt lat="49.26069" lon="1.05393">
        <ele>54.618999</ele>
      </trkpt>
      <trkpt lat="49.26082" lon="1.05386">
        <ele>52.694988</ele>
      </trkpt>
      <trkpt lat="49.26114" lon="1.05363">
        <ele>49.696251</ele>
      </trkpt>
      <trkpt lat="49.26125" lon="1.05358">
        <ele>48.596249</ele>
      </trkpt>
      <trkpt lat="49.2614" lon="1.05353">
        <ele>47.064686</ele>
      </trkpt>
      <trkpt lat="49.26184" lon="1.05345">
        <ele>43.577751</ele>
      </trkpt>
      <trkpt lat="49.26212" lon="1.05343">
        <ele>41.622349</ele>
      </trkpt>
      <trkpt lat="49.26227" lon="1.05344">
        <ele>40.722111</ele>
      </trkpt>
      <trkpt lat="49.2626" lon="1.05352">
        <ele>38.680454</ele>
      </trkpt>
      <trkpt lat="49.26278" lon="1.05361">
        <ele>37.365162</ele>
      </trkpt>
      <trkpt lat="49.26304" lon="1.05368">
        <ele>35.820007</ele>
      </trkpt>
      <trkpt lat="49.26306" lon="1.05339">
        <ele>36.219208</ele>
      </trkpt>
      <trkpt lat="49.26316" lon="1.05314">
        <ele>36.897499</ele>
      </trkpt>
      <trkpt lat="49.26355" lon="1.05275">
        <ele>38.632927</ele>
      </trkpt>
      <trkpt lat="49.26394" lon="1.05244">
        <ele>40.2127</ele>
      </trkpt>
      <trkpt lat="49.26462" lon="1.05192">
        <ele>40.229214</ele>
      </trkpt>
      <trkpt lat="49.26512" lon="1.05149">
        <ele>39.9963</ele>
      </trkpt>
      <trkpt lat="49.26535" lon="1.05132">
        <ele>39.470711</ele>
      </trkpt>
      <trkpt lat="49.26546" lon="1.05121">
        <ele>39.303749</ele>
      </trkpt>
      <trkpt lat="49.26558" lon="1.05093">
        <ele>39.208488</ele>
      </trkpt>
      <trkpt lat="49.26588" lon="1.05">
        <ele>35.872501</ele>
      </trkpt>
      <trkpt lat="49.26599" lon="1.04969">
        <ele>33.305</ele>
      </trkpt>
      <trkpt lat="49.26588" lon="1.04937">
        <ele>32.152912</ele>
      </trkpt>
      <trkpt lat="49.26577" lon="1.04917">
        <ele>31.620001</ele>
      </trkpt>
      <trkpt lat="49.2657" lon="1.04908">
        <ele>31.6325</ele>
      </trkpt>
      <trkpt lat="49.26535" lon="1.04879">
        <ele>32.209999</ele>
      </trkpt>
      <trkpt lat="49.26504" lon="1.04848">
        <ele>32.531914</ele>
      </trkpt>
      <trkpt lat="49.26489" lon="1.04831">
        <ele>32.350113</ele>
      </trkpt>
      <trkpt lat="49.26454" lon="1.04792">
        <ele>31.83</ele>
      </trkpt>
      <trkpt lat="49.26419" lon="1.04773">
        <ele>32.504963</ele>
      </trkpt>
      <trkpt lat="49.26403" lon="1.04762">
        <ele>32.459343</ele>
      </trkpt>
      <trkpt lat="49.2637" lon="1.04711">
        <ele>31.081556</ele>
      </trkpt>
      <trkpt lat="49.26337" lon="1.04673">
        <ele>30.652563</ele>
      </trkpt>
      <trkpt lat="49.26337" lon="1.0467">
        <ele>30.575251</ele>
      </trkpt>
      <trkpt lat="49.26338" lon="1.04673">
        <ele>30.616938</ele>
      </trkpt>
      <trkpt lat="49.26339" lon="1.04665">
        <ele>30.462505</ele>
      </trkpt>
      <trkpt lat="49.26351" lon="1.04644">
        <ele>29.993662</ele>
      </trkpt>
      <trkpt lat="49.26385" lon="1.04582">
        <ele>32.968758</ele>
      </trkpt>
      <trkpt lat="49.26397" lon="1.04581">
        <ele>33.625248</ele>
      </trkpt>
      <trkpt lat="49.26407" lon="1.04585">
        <ele>34.082531</ele>
      </trkpt>
      <trkpt lat="49.26418" lon="1.04578">
        <ele>36.156399</ele>
      </trkpt>
      <trkpt lat="49.26433" lon="1.04565">
        <ele>39.513519</ele>
      </trkpt>
      <trkpt lat="49.26455" lon="1.04549">
        <ele>44.123688</ele>
      </trkpt>
      <trkpt lat="49.26489" lon="1.04538">
        <ele>48.726563</ele>
      </trkpt>
      <trkpt lat="49.26506" lon="1.0453">
        <ele>49.5275</ele>
      </trkpt>
      <trkpt lat="49.2651" lon="1.04527">
        <ele>49.848064</ele>
      </trkpt>
      <trkpt lat="49.26511" lon="1.04525">
        <ele>50.208439</ele>
      </trkpt>
      <trkpt lat="49.26509" lon="1.0452">
        <ele>50.985588</ele>
      </trkpt>
      <trkpt lat="49.26506" lon="1.04519">
        <ele>51.195648</ele>
      </trkpt>
      <trkpt lat="49.26502" lon="1.04516">
        <ele>51.891499</ele>
      </trkpt>
      <trkpt lat="49.26491" lon="1.04487">
        <ele>57.666248</ele>
      </trkpt>
      <trkpt lat="49.26489" lon="1.04475">
        <ele>59.930725</ele>
      </trkpt>
      <trkpt lat="49.2649" lon="1.04433">
        <ele>64.930626</ele>
      </trkpt>
      <trkpt lat="49.26487" lon="1.04422">
        <ele>66.211998</ele>
      </trkpt>
      <trkpt lat="49.26497" lon="1.04396">
        <ele>68.366814</ele>
      </trkpt>
      <trkpt lat="49.26498" lon="1.0436">
        <ele>71.536247</ele>
      </trkpt>
      <trkpt lat="49.26499" lon="1.04336">
        <ele>73.613747</ele>
      </trkpt>
      <trkpt lat="49.26497" lon="1.04312">
        <ele>75.701248</ele>
      </trkpt>
      <trkpt lat="49.26498" lon="1.04299">
        <ele>76.846252</ele>
      </trkpt>
      <trkpt lat="49.26503" lon="1.04278">
        <ele>78.504997</ele>
      </trkpt>
      <trkpt lat="49.26524" lon="1.0425">
        <ele>80.264786</ele>
      </trkpt>
      <trkpt lat="49.26533" lon="1.04204">
        <ele>80.961258</ele>
      </trkpt>
      <trkpt lat="49.26526" lon="1.04118">
        <ele>83.719727</ele>
      </trkpt>
      <trkpt lat="49.26517" lon="1.04068">
        <ele>86.361656</ele>
      </trkpt>
      <trkpt lat="49.26514" lon="1.04048">
        <ele>87.27887</ele>
      </trkpt>
      <trkpt lat="49.26516" lon="1.03947">
        <ele>91.710625</ele>
      </trkpt>
      <trkpt lat="49.26515" lon="1.03909">
        <ele>93.438126</ele>
      </trkpt>
      <trkpt lat="49.26518" lon="1.03851">
        <ele>95.834999</ele>
      </trkpt>
      <trkpt lat="49.26522" lon="1.03807">
        <ele>97.924324</ele>
      </trkpt>
      <trkpt lat="49.26521" lon="1.03776">
        <ele>99.748138</ele>
      </trkpt>
      <trkpt lat="49.26523" lon="1.03752">
        <ele>100.32238</ele>
      </trkpt>
      <trkpt lat="49.26526" lon="1.03738">
        <ele>100.448128</ele>
      </trkpt>
      <trkpt lat="49.26531" lon="1.03718">
        <ele>100.520576</ele>
      </trkpt>
      <trkpt lat="49.26556" lon="1.03668">
        <ele>99.928093</ele>
      </trkpt>
      <trkpt lat="49.26564" lon="1.03646">
        <ele>99.731766</ele>
      </trkpt>
      <trkpt lat="49.2657" lon="1.03624">
        <ele>99.576248</ele>
      </trkpt>
      <trkpt lat="49.26579" lon="1.03611">
        <ele>98.703751</ele>
      </trkpt>
      <trkpt lat="49.26586" lon="1.03597">
        <ele>98.063751</ele>
      </trkpt>
      <trkpt lat="49.26598" lon="1.03571">
        <ele>97.301247</ele>
      </trkpt>
      <trkpt lat="49.26609" lon="1.03552">
        <ele>96.383202</ele>
      </trkpt>
      <trkpt lat="49.26611" lon="1.03545">
        <ele>96.039352</ele>
      </trkpt>
      <trkpt lat="49.26613" lon="1.03536">
        <ele>96.035141</ele>
      </trkpt>
      <trkpt lat="49.26619" lon="1.03524">
        <ele>95.040398</ele>
      </trkpt>
      <trkpt lat="49.26624" lon="1.03512">
        <ele>94.4245</ele>
      </trkpt>
      <trkpt lat="49.2663" lon="1.03502">
        <ele>93.669304</ele>
      </trkpt>
      <trkpt lat="49.26652" lon="1.03469">
        <ele>90.614998</ele>
      </trkpt>
      <trkpt lat="49.26677" lon="1.03443">
        <ele>85.253998</ele>
      </trkpt>
      <trkpt lat="49.2669" lon="1.03427">
        <ele>82.673927</ele>
      </trkpt>
      <trkpt lat="49.26699" lon="1.03415">
        <ele>80.198753</ele>
      </trkpt>
      <trkpt lat="49.26705" lon="1.03405">
        <ele>78.591248</ele>
      </trkpt>
      <trkpt lat="49.2673" lon="1.03355">
        <ele>71.552498</ele>
      </trkpt>
      <trkpt lat="49.26735" lon="1.03343">
        <ele>71.110626</ele>
      </trkpt>
      <trkpt lat="49.26749" lon="1.03325">
        <ele>68.936501</ele>
      </trkpt>
      <trkpt lat="49.26755" lon="1.03316">
        <ele>68.326141</ele>
      </trkpt>
      <trkpt lat="49.26759" lon="1.0331">
        <ele>67.828873</ele>
      </trkpt>
      <trkpt lat="49.26785" lon="1.03283">
        <ele>63.330601</ele>
      </trkpt>
      <trkpt lat="49.26791" lon="1.03275">
        <ele>62.830296</ele>
      </trkpt>
      <trkpt lat="49.26804" lon="1.03267">
        <ele>61.287621</ele>
      </trkpt>
      <trkpt lat="49.26825" lon="1.03246">
        <ele>59.452183</ele>
      </trkpt>
      <trkpt lat="49.26835" lon="1.03233">
        <ele>59.236874</ele>
      </trkpt>
      <trkpt lat="49.26848" lon="1.03222">
        <ele>58.095032</ele>
      </trkpt>
      <trkpt lat="49.26866" lon="1.03213">
        <ele>55.655937</ele>
      </trkpt>
      <trkpt lat="49.26874" lon="1.03207">
        <ele>54.564999</ele>
      </trkpt>
      <trkpt lat="49.26883" lon="1.03202">
        <ele>52.820889</ele>
      </trkpt>
      <trkpt lat="49.26897" lon="1.03192">
        <ele>50.448837</ele>
      </trkpt>
      <trkpt lat="49.26915" lon="1.03171">
        <ele>47.656452</ele>
      </trkpt>
      <trkpt lat="49.26926" lon="1.0315">
        <ele>46.936008</ele>
      </trkpt>
      <trkpt lat="49.26933" lon="1.03127">
        <ele>47.378689</ele>
      </trkpt>
      <trkpt lat="49.26943" lon="1.03106">
        <ele>47.141544</ele>
      </trkpt>
      <trkpt lat="49.26952" lon="1.03094">
        <ele>46.595184</ele>
      </trkpt>
      <trkpt lat="49.2696" lon="1.03085">
        <ele>45.867599</ele>
      </trkpt>
      <trkpt lat="49.26965" lon="1.03074">
        <ele>45.834999</ele>
      </trkpt>
      <trkpt lat="49.26969" lon="1.03068">
        <ele>45.727501</ele>
      </trkpt>
      <trkpt lat="49.26974" lon="1.03055">
        <ele>45.959999</ele>
      </trkpt>
      <trkpt lat="49.26979" lon="1.03034">
        <ele>46.5625</ele>
      </trkpt>
      <trkpt lat="49.26991" lon="1.03002">
        <ele>47.125057</ele>
      </trkpt>
      <trkpt lat="49.27012" lon="1.02978">
        <ele>46.494999</ele>
      </trkpt>
      <trkpt lat="49.27029" lon="1.02962">
        <ele>45.479149</ele>
      </trkpt>
      <trkpt lat="49.27044" lon="1.02944">
        <ele>44.512001</ele>
      </trkpt>
      <trkpt lat="49.27053" lon="1.02928">
        <ele>44.250179</ele>
      </trkpt>
      <trkpt lat="49.27069" lon="1.02884">
        <ele>44.645626</ele>
      </trkpt>
      <trkpt lat="49.27077" lon="1.0285">
        <ele>44.891361</ele>
      </trkpt>
      <trkpt lat="49.2708" lon="1.02833">
        <ele>45.101749</ele>
      </trkpt>
      <trkpt lat="49.2708" lon="1.02822">
        <ele>45.439602</ele>
      </trkpt>
      <trkpt lat="49.27083" lon="1.02823">
        <ele>45.014072</ele>
      </trkpt>
      <trkpt lat="49.2709" lon="1.02807">
        <ele>44.416218</ele>
      </trkpt>
      <trkpt lat="49.27097" lon="1.02774">
        <ele>44.541874</ele>
      </trkpt>
      <trkpt lat="49.2711" lon="1.0273">
        <ele>44.764221</ele>
      </trkpt>
      <trkpt lat="49.27121" lon="1.02663">
        <ele>45.8381</ele>
      </trkpt>
      <trkpt lat="49.27125" lon="1.02622">
        <ele>46.923939</ele>
      </trkpt>
      <trkpt lat="49.27128" lon="1.02583">
        <ele>48.066517</ele>
      </trkpt>
      <trkpt lat="49.2713" lon="1.02573">
        <ele>48.090126</ele>
      </trkpt>
      <trkpt lat="49.27141" lon="1.02566">
        <ele>46.441151</ele>
      </trkpt>
      <trkpt lat="49.27167" lon="1.02551">
        <ele>43.278648</ele>
      </trkpt>
      <trkpt lat="49.27178" lon="1.02542">
        <ele>41.785198</ele>
      </trkpt>
      <trkpt lat="49.27192" lon="1.02528">
        <ele>40.555</ele>
      </trkpt>
      <trkpt lat="49.27206" lon="1.02518">
        <ele>39.272499</ele>
      </trkpt>
      <trkpt lat="49.27222" lon="1.02514">
        <ele>37.59375</ele>
      </trkpt>
      <trkpt lat="49.2724" lon="1.02508">
        <ele>36.098751</ele>
      </trkpt>
      <trkpt lat="49.27261" lon="1.02498">
        <ele>34.48875</ele>
      </trkpt>
      <trkpt lat="49.27288" lon="1.0249">
        <ele>32.206249</ele>
      </trkpt>
      <trkpt lat="49.27319" lon="1.02479">
        <ele>29.83</ele>
      </trkpt>
      <trkpt lat="49.27351" lon="1.02458">
        <ele>27.543751</ele>
      </trkpt>
      <trkpt lat="49.27419" lon="1.02402">
        <ele>24.66</ele>
      </trkpt>
      <trkpt lat="49.2744" lon="1.02385">
        <ele>24.165001</ele>
      </trkpt>
      <trkpt lat="49.27462" lon="1.0237">
        <ele>23.60125</ele>
      </trkpt>
      <trkpt lat="49.27482" lon="1.02378">
        <ele>22.455</ele>
      </trkpt>
      <trkpt lat="49.27593" lon="1.02442">
        <ele>17.810404</ele>
      </trkpt>
      <trkpt lat="49.27598" lon="1.0245">
        <ele>17.68</ele>
      </trkpt>
      <trkpt lat="49.27601" lon="1.0247">
        <ele>17.635</ele>
      </trkpt>
      <trkpt lat="49.27615" lon="1.02483">
        <ele>17.325001</ele>
      </trkpt>
      <trkpt lat="49.27674" lon="1.02504">
        <ele>16.915043</ele>
      </trkpt>
      <trkpt lat="49.27725" lon="1.02524">
        <ele>15.88</ele>
      </trkpt>
      <trkpt lat="49.27742" lon="1.02525">
        <ele>15.51</ele>
      </trkpt>
      <trkpt lat="49.27758" lon="1.02521">
        <ele>15.145</ele>
      </trkpt>
      <trkpt lat="49.27776" lon="1.02528">
        <ele>14.755</ele>
      </trkpt>
      <trkpt lat="49.27801" lon="1.02527">
        <ele>14.185</ele>
      </trkpt>
      <trkpt lat="49.2783" lon="1.02519">
        <ele>14</ele>
      </trkpt>
      <trkpt lat="49.27881" lon="1.02487">
        <ele>14</ele>
      </trkpt>
      <trkpt lat="49.27894" lon="1.02488">
        <ele>14</ele>
      </trkpt>
    </trkseg>
  </trk>
</gpx>